<?xml version="1.0" encoding="UTF-8" standalone="no" ?>
<gpx xmlns="http://www.topografix.com/GPX/1/1" xmlns:xsi="http://www.w3.org/2001/XMLSchema-instance" xsi:schemaLocation="http://www.topografix.com/GPX/1/1 http://www.topografix.com/GPX/1/1/gpx.xsd" version="1.1" creator="VisuGPX - https://www.visugpx.com">
  <metadata>
    <name>Sun Trip 2019</name>
    <desc><![CDATA[Le parcours du Sun Trip 2019]]></desc>
  </metadata>
  <trk>
    <name><![CDATA[J15]]></name>
    <trkseg>
      <trkpt lat="44.72762" lon="5.02121">
        <ele>189</ele>
        <time>2019-04-18T09:52:52Z</time>
      </trkpt>
      <trkpt lat="44.72786" lon="5.02002">
        <ele>186</ele>
        <time>2019-04-18T09:53:52Z</time>
      </trkpt>
      <trkpt lat="44.72815" lon="5.01831">
        <ele>184</ele>
        <time>2019-04-18T09:54:52Z</time>
      </trkpt>
      <trkpt lat="44.72835" lon="5.01799">
        <ele>183</ele>
        <time>2019-04-18T09:55:52Z</time>
      </trkpt>
      <trkpt lat="44.72847" lon="5.01787">
        <ele>183</ele>
        <time>2019-04-18T09:56:52Z</time>
      </trkpt>
      <trkpt lat="44.73007" lon="5.01655">
        <ele>186</ele>
        <time>2019-04-18T09:57:52Z</time>
      </trkpt>
      <trkpt lat="44.73028" lon="5.01635">
        <ele>186</ele>
        <time>2019-04-18T09:58:52Z</time>
      </trkpt>
      <trkpt lat="44.73125" lon="5.01506">
        <ele>185</ele>
        <time>2019-04-18T09:59:52Z</time>
      </trkpt>
      <trkpt lat="44.73292" lon="5.01291">
        <ele>184</ele>
        <time>2019-04-18T10:00:52Z</time>
      </trkpt>
      <trkpt lat="44.73334" lon="5.01247">
        <ele>185</ele>
        <time>2019-04-18T10:01:52Z</time>
      </trkpt>
      <trkpt lat="44.73356" lon="5.01233">
        <ele>185</ele>
        <time>2019-04-18T10:02:52Z</time>
      </trkpt>
      <trkpt lat="44.73372" lon="5.01226">
        <ele>186</ele>
        <time>2019-04-18T10:03:52Z</time>
      </trkpt>
      <trkpt lat="44.73388" lon="5.01214">
        <ele>186</ele>
        <time>2019-04-18T10:04:52Z</time>
      </trkpt>
      <trkpt lat="44.73396" lon="5.01206">
        <ele>187</ele>
        <time>2019-04-18T10:05:52Z</time>
      </trkpt>
      <trkpt lat="44.7343" lon="5.01144">
        <ele>186</ele>
        <time>2019-04-18T10:06:52Z</time>
      </trkpt>
      <trkpt lat="44.73344" lon="5.01058">
        <ele>182</ele>
        <time>2019-04-18T10:07:52Z</time>
      </trkpt>
      <trkpt lat="44.73338" lon="5.01028">
        <ele>181</ele>
        <time>2019-04-18T10:08:52Z</time>
      </trkpt>
      <trkpt lat="44.73333" lon="5.0094">
        <ele>179</ele>
        <time>2019-04-18T10:09:52Z</time>
      </trkpt>
      <trkpt lat="44.73333" lon="5.00906">
        <ele>179</ele>
        <time>2019-04-18T10:10:52Z</time>
      </trkpt>
      <trkpt lat="44.73331" lon="5.00881">
        <ele>179</ele>
        <time>2019-04-18T10:11:52Z</time>
      </trkpt>
      <trkpt lat="44.73314" lon="5.00789">
        <ele>178</ele>
        <time>2019-04-18T10:12:52Z</time>
      </trkpt>
      <trkpt lat="44.73313" lon="5.00748">
        <ele>178</ele>
        <time>2019-04-18T10:13:52Z</time>
      </trkpt>
      <trkpt lat="44.73321" lon="5.00537">
        <ele>178</ele>
        <time>2019-04-18T10:14:52Z</time>
      </trkpt>
      <trkpt lat="44.73322" lon="5.00457">
        <ele>178</ele>
        <time>2019-04-18T10:15:52Z</time>
      </trkpt>
      <trkpt lat="44.7332" lon="5.00359">
        <ele>177</ele>
        <time>2019-04-18T10:16:52Z</time>
      </trkpt>
      <trkpt lat="44.73321" lon="5.00343">
        <ele>177</ele>
        <time>2019-04-18T10:17:52Z</time>
      </trkpt>
      <trkpt lat="44.73331" lon="5.00292">
        <ele>176</ele>
        <time>2019-04-18T10:18:52Z</time>
      </trkpt>
      <trkpt lat="44.73336" lon="5.00249">
        <ele>175</ele>
        <time>2019-04-18T10:19:52Z</time>
      </trkpt>
      <trkpt lat="44.73341" lon="5.00185">
        <ele>176</ele>
        <time>2019-04-18T10:20:52Z</time>
      </trkpt>
      <trkpt lat="44.73342" lon="5.00139">
        <ele>177</ele>
        <time>2019-04-18T10:21:52Z</time>
      </trkpt>
      <trkpt lat="44.7334" lon="5.00103">
        <ele>177</ele>
        <time>2019-04-18T10:22:52Z</time>
      </trkpt>
      <trkpt lat="44.73341" lon="5.00092">
        <ele>177</ele>
        <time>2019-04-18T10:23:52Z</time>
      </trkpt>
      <trkpt lat="44.73344" lon="5.00085">
        <ele>177</ele>
        <time>2019-04-18T10:24:52Z</time>
      </trkpt>
      <trkpt lat="44.73346" lon="5.00076">
        <ele>177</ele>
        <time>2019-04-18T10:25:52Z</time>
      </trkpt>
      <trkpt lat="44.73344" lon="5.00069">
        <ele>178</ele>
        <time>2019-04-18T10:26:52Z</time>
      </trkpt>
      <trkpt lat="44.73338" lon="5.00059">
        <ele>178</ele>
        <time>2019-04-18T10:27:52Z</time>
      </trkpt>
      <trkpt lat="44.73329" lon="5.00056">
        <ele>178</ele>
        <time>2019-04-18T10:28:52Z</time>
      </trkpt>
      <trkpt lat="44.73322" lon="5.00052">
        <ele>178</ele>
        <time>2019-04-18T10:29:52Z</time>
      </trkpt>
      <trkpt lat="44.73305" lon="5.00037">
        <ele>178</ele>
        <time>2019-04-18T10:30:52Z</time>
      </trkpt>
      <trkpt lat="44.73298" lon="5.00024">
        <ele>178</ele>
        <time>2019-04-18T10:31:52Z</time>
      </trkpt>
      <trkpt lat="44.73294" lon="4.99998">
        <ele>178</ele>
        <time>2019-04-18T10:32:52Z</time>
      </trkpt>
      <trkpt lat="44.73296" lon="4.99984">
        <ele>178</ele>
        <time>2019-04-18T10:33:52Z</time>
      </trkpt>
      <trkpt lat="44.73307" lon="4.99957">
        <ele>178</ele>
        <time>2019-04-18T10:34:52Z</time>
      </trkpt>
      <trkpt lat="44.73197" lon="4.99865">
        <ele>177</ele>
        <time>2019-04-18T10:35:52Z</time>
      </trkpt>
      <trkpt lat="44.73125" lon="4.99799">
        <ele>176</ele>
        <time>2019-04-18T10:36:52Z</time>
      </trkpt>
      <trkpt lat="44.73113" lon="4.99786">
        <ele>175</ele>
        <time>2019-04-18T10:37:52Z</time>
      </trkpt>
      <trkpt lat="44.7311" lon="4.99762">
        <ele>174</ele>
        <time>2019-04-18T10:38:52Z</time>
      </trkpt>
      <trkpt lat="44.73116" lon="4.99729">
        <ele>174</ele>
        <time>2019-04-18T10:39:52Z</time>
      </trkpt>
      <trkpt lat="44.73126" lon="4.99708">
        <ele>174</ele>
        <time>2019-04-18T10:40:52Z</time>
      </trkpt>
      <trkpt lat="44.73135" lon="4.99645">
        <ele>172</ele>
        <time>2019-04-18T10:41:52Z</time>
      </trkpt>
      <trkpt lat="44.73145" lon="4.99625">
        <ele>172</ele>
        <time>2019-04-18T10:42:52Z</time>
      </trkpt>
      <trkpt lat="44.73141" lon="4.99601">
        <ele>172</ele>
        <time>2019-04-18T10:43:52Z</time>
      </trkpt>
      <trkpt lat="44.73141" lon="4.99589">
        <ele>172</ele>
        <time>2019-04-18T10:44:52Z</time>
      </trkpt>
      <trkpt lat="44.73168" lon="4.99348">
        <ele>170</ele>
        <time>2019-04-18T10:45:52Z</time>
      </trkpt>
      <trkpt lat="44.7318" lon="4.99267">
        <ele>170</ele>
        <time>2019-04-18T10:46:52Z</time>
      </trkpt>
      <trkpt lat="44.73182" lon="4.99229">
        <ele>170</ele>
        <time>2019-04-18T10:47:52Z</time>
      </trkpt>
      <trkpt lat="44.7319" lon="4.99154">
        <ele>170</ele>
        <time>2019-04-18T10:48:52Z</time>
      </trkpt>
      <trkpt lat="44.73216" lon="4.98929">
        <ele>170</ele>
        <time>2019-04-18T10:49:52Z</time>
      </trkpt>
      <trkpt lat="44.73239" lon="4.98737">
        <ele>169</ele>
        <time>2019-04-18T10:50:52Z</time>
      </trkpt>
      <trkpt lat="44.73256" lon="4.98605">
        <ele>168</ele>
        <time>2019-04-18T10:51:52Z</time>
      </trkpt>
      <trkpt lat="44.73283" lon="4.98347">
        <ele>171</ele>
        <time>2019-04-18T10:52:52Z</time>
      </trkpt>
      <trkpt lat="44.73303" lon="4.98182">
        <ele>168</ele>
        <time>2019-04-18T10:53:52Z</time>
      </trkpt>
      <trkpt lat="44.73308" lon="4.98157">
        <ele>167</ele>
        <time>2019-04-18T10:54:52Z</time>
      </trkpt>
      <trkpt lat="44.73314" lon="4.98144">
        <ele>167</ele>
        <time>2019-04-18T10:55:52Z</time>
      </trkpt>
      <trkpt lat="44.73321" lon="4.98135">
        <ele>167</ele>
        <time>2019-04-18T10:56:52Z</time>
      </trkpt>
      <trkpt lat="44.73414" lon="4.98216">
        <ele>167</ele>
        <time>2019-04-18T10:57:52Z</time>
      </trkpt>
      <trkpt lat="44.73503" lon="4.98283">
        <ele>170</ele>
        <time>2019-04-18T10:58:52Z</time>
      </trkpt>
      <trkpt lat="44.73538" lon="4.98166">
        <ele>168</ele>
        <time>2019-04-18T10:59:52Z</time>
      </trkpt>
      <trkpt lat="44.73697" lon="4.97801">
        <ele>164</ele>
        <time>2019-04-18T11:00:52Z</time>
      </trkpt>
      <trkpt lat="44.73772" lon="4.97639">
        <ele>163</ele>
        <time>2019-04-18T11:01:52Z</time>
      </trkpt>
      <trkpt lat="44.73826" lon="4.97505">
        <ele>162</ele>
        <time>2019-04-18T11:02:52Z</time>
      </trkpt>
      <trkpt lat="44.74122" lon="4.96834">
        <ele>158</ele>
        <time>2019-04-18T11:03:52Z</time>
      </trkpt>
      <trkpt lat="44.74242" lon="4.96569">
        <ele>156</ele>
        <time>2019-04-18T11:04:52Z</time>
      </trkpt>
      <trkpt lat="44.74309" lon="4.96425">
        <ele>155</ele>
        <time>2019-04-18T11:05:52Z</time>
      </trkpt>
      <trkpt lat="44.74404" lon="4.96214">
        <ele>156</ele>
        <time>2019-04-18T11:06:52Z</time>
      </trkpt>
      <trkpt lat="44.74412" lon="4.96188">
        <ele>156</ele>
        <time>2019-04-18T11:07:52Z</time>
      </trkpt>
      <trkpt lat="44.74441" lon="4.96065">
        <ele>156</ele>
        <time>2019-04-18T11:08:52Z</time>
      </trkpt>
      <trkpt lat="44.74445" lon="4.96054">
        <ele>156</ele>
        <time>2019-04-18T11:09:52Z</time>
      </trkpt>
      <trkpt lat="44.74457" lon="4.96031">
        <ele>156</ele>
        <time>2019-04-18T11:10:52Z</time>
      </trkpt>
      <trkpt lat="44.74467" lon="4.95988">
        <ele>156</ele>
        <time>2019-04-18T11:11:52Z</time>
      </trkpt>
      <trkpt lat="44.74476" lon="4.95961">
        <ele>156</ele>
        <time>2019-04-18T11:12:52Z</time>
      </trkpt>
      <trkpt lat="44.74484" lon="4.95948">
        <ele>156</ele>
        <time>2019-04-18T11:13:52Z</time>
      </trkpt>
      <trkpt lat="44.74524" lon="4.95892">
        <ele>157</ele>
        <time>2019-04-18T11:14:52Z</time>
      </trkpt>
      <trkpt lat="44.74527" lon="4.95884">
        <ele>157</ele>
        <time>2019-04-18T11:15:52Z</time>
      </trkpt>
      <trkpt lat="44.74529" lon="4.95861">
        <ele>157</ele>
        <time>2019-04-18T11:16:52Z</time>
      </trkpt>
      <trkpt lat="44.74556" lon="4.95666">
        <ele>155</ele>
        <time>2019-04-18T11:17:52Z</time>
      </trkpt>
      <trkpt lat="44.74577" lon="4.95545">
        <ele>152</ele>
        <time>2019-04-18T11:18:52Z</time>
      </trkpt>
      <trkpt lat="44.74594" lon="4.95461">
        <ele>151</ele>
        <time>2019-04-18T11:19:52Z</time>
      </trkpt>
      <trkpt lat="44.74648" lon="4.95163">
        <ele>150</ele>
        <time>2019-04-18T11:20:52Z</time>
      </trkpt>
      <trkpt lat="44.74682" lon="4.94965">
        <ele>149</ele>
        <time>2019-04-18T11:21:52Z</time>
      </trkpt>
      <trkpt lat="44.74719" lon="4.94764">
        <ele>151</ele>
        <time>2019-04-18T11:22:52Z</time>
      </trkpt>
      <trkpt lat="44.74722" lon="4.94735">
        <ele>151</ele>
        <time>2019-04-18T11:23:52Z</time>
      </trkpt>
      <trkpt lat="44.74786" lon="4.9437">
        <ele>150</ele>
        <time>2019-04-18T11:24:52Z</time>
      </trkpt>
      <trkpt lat="44.74729" lon="4.94354">
        <ele>150</ele>
        <time>2019-04-18T11:25:52Z</time>
      </trkpt>
      <trkpt lat="44.74729" lon="4.94354">
        <ele>150</ele>
        <time>2019-04-18T11:26:52Z</time>
      </trkpt>
      <trkpt lat="44.7479" lon="4.93925">
        <ele>148</ele>
        <time>2019-04-18T11:27:52Z</time>
      </trkpt>
      <trkpt lat="44.7479" lon="4.93925">
        <ele>148</ele>
        <time>2019-04-18T11:28:52Z</time>
      </trkpt>
      <trkpt lat="44.74813" lon="4.93729">
        <ele>145</ele>
        <time>2019-04-18T11:29:52Z</time>
      </trkpt>
      <trkpt lat="44.74813" lon="4.93729">
        <ele>145</ele>
        <time>2019-04-18T11:30:52Z</time>
      </trkpt>
      <trkpt lat="44.74906" lon="4.93045">
        <ele>144</ele>
        <time>2019-04-18T11:31:52Z</time>
      </trkpt>
      <trkpt lat="44.74908" lon="4.93046">
        <ele>144</ele>
        <time>2019-04-18T11:32:52Z</time>
      </trkpt>
      <trkpt lat="44.7494" lon="4.92775">
        <ele>143</ele>
        <time>2019-04-18T11:33:52Z</time>
      </trkpt>
      <trkpt lat="44.74956" lon="4.92599">
        <ele>142</ele>
        <time>2019-04-18T11:34:52Z</time>
      </trkpt>
      <trkpt lat="44.75015" lon="4.92007">
        <ele>138</ele>
        <time>2019-04-18T11:35:52Z</time>
      </trkpt>
      <trkpt lat="44.74889" lon="4.91982">
        <ele>141</ele>
        <time>2019-04-18T11:36:52Z</time>
      </trkpt>
      <trkpt lat="44.74922" lon="4.91678">
        <ele>142</ele>
        <time>2019-04-18T11:37:52Z</time>
      </trkpt>
      <trkpt lat="44.74937" lon="4.91605">
        <ele>142</ele>
        <time>2019-04-18T11:38:52Z</time>
      </trkpt>
      <trkpt lat="44.74955" lon="4.91595">
        <ele>141</ele>
        <time>2019-04-18T11:39:52Z</time>
      </trkpt>
      <trkpt lat="44.75053" lon="4.91615">
        <ele>138</ele>
        <time>2019-04-18T11:40:52Z</time>
      </trkpt>
      <trkpt lat="44.75205" lon="4.91648">
        <ele>137</ele>
        <time>2019-04-18T11:41:52Z</time>
      </trkpt>
      <trkpt lat="44.753" lon="4.91686">
        <ele>137</ele>
        <time>2019-04-18T11:42:52Z</time>
      </trkpt>
      <trkpt lat="44.75433" lon="4.9171">
        <ele>138</ele>
        <time>2019-04-18T11:43:52Z</time>
      </trkpt>
      <trkpt lat="44.75754" lon="4.91621">
        <ele>137</ele>
        <time>2019-04-18T11:44:52Z</time>
      </trkpt>
      <trkpt lat="44.75844" lon="4.916">
        <ele>136</ele>
        <time>2019-04-18T11:45:52Z</time>
      </trkpt>
      <trkpt lat="44.75922" lon="4.91583">
        <ele>138</ele>
        <time>2019-04-18T11:46:52Z</time>
      </trkpt>
      <trkpt lat="44.75961" lon="4.91586">
        <ele>138</ele>
        <time>2019-04-18T11:47:52Z</time>
      </trkpt>
      <trkpt lat="44.75987" lon="4.916">
        <ele>138</ele>
        <time>2019-04-18T11:48:52Z</time>
      </trkpt>
      <trkpt lat="44.76007" lon="4.9162">
        <ele>137</ele>
        <time>2019-04-18T11:49:52Z</time>
      </trkpt>
      <trkpt lat="44.7606" lon="4.91655">
        <ele>137</ele>
        <time>2019-04-18T11:50:52Z</time>
      </trkpt>
      <trkpt lat="44.76129" lon="4.9169">
        <ele>139</ele>
        <time>2019-04-18T11:51:52Z</time>
      </trkpt>
      <trkpt lat="44.76173" lon="4.91714">
        <ele>141</ele>
        <time>2019-04-18T11:52:52Z</time>
      </trkpt>
      <trkpt lat="44.76176" lon="4.91686">
        <ele>141</ele>
        <time>2019-04-18T11:53:52Z</time>
      </trkpt>
      <trkpt lat="44.76196" lon="4.91574">
        <ele>139</ele>
        <time>2019-04-18T11:54:52Z</time>
      </trkpt>
      <trkpt lat="44.76215" lon="4.91526">
        <ele>139</ele>
        <time>2019-04-18T11:55:52Z</time>
      </trkpt>
      <trkpt lat="44.7626" lon="4.91462">
        <ele>142</ele>
        <time>2019-04-18T11:56:52Z</time>
      </trkpt>
      <trkpt lat="44.76324" lon="4.91401">
        <ele>146</ele>
        <time>2019-04-18T11:57:52Z</time>
      </trkpt>
      <trkpt lat="44.76359" lon="4.91377">
        <ele>145</ele>
        <time>2019-04-18T11:58:52Z</time>
      </trkpt>
      <trkpt lat="44.764" lon="4.91341">
        <ele>143</ele>
        <time>2019-04-18T11:59:52Z</time>
      </trkpt>
      <trkpt lat="44.76454" lon="4.91281">
        <ele>146</ele>
        <time>2019-04-18T12:00:52Z</time>
      </trkpt>
      <trkpt lat="44.76474" lon="4.91262">
        <ele>148</ele>
        <time>2019-04-18T12:01:52Z</time>
      </trkpt>
      <trkpt lat="44.76476" lon="4.91267">
        <ele>148</ele>
        <time>2019-04-18T12:02:52Z</time>
      </trkpt>
      <trkpt lat="44.76483" lon="4.91272">
        <ele>149</ele>
        <time>2019-04-18T12:03:52Z</time>
      </trkpt>
      <trkpt lat="44.76492" lon="4.91269">
        <ele>149</ele>
        <time>2019-04-18T12:04:52Z</time>
      </trkpt>
      <trkpt lat="44.76495" lon="4.91266">
        <ele>150</ele>
        <time>2019-04-18T12:05:52Z</time>
      </trkpt>
      <trkpt lat="44.76497" lon="4.91256">
        <ele>150</ele>
        <time>2019-04-18T12:06:52Z</time>
      </trkpt>
      <trkpt lat="44.76496" lon="4.91246">
        <ele>149</ele>
        <time>2019-04-18T12:07:52Z</time>
      </trkpt>
      <trkpt lat="44.76493" lon="4.91242">
        <ele>149</ele>
        <time>2019-04-18T12:08:52Z</time>
      </trkpt>
      <trkpt lat="44.76505" lon="4.91229">
        <ele>150</ele>
        <time>2019-04-18T12:09:52Z</time>
      </trkpt>
      <trkpt lat="44.76515" lon="4.91212">
        <ele>151</ele>
        <time>2019-04-18T12:10:52Z</time>
      </trkpt>
      <trkpt lat="44.76554" lon="4.91165">
        <ele>155</ele>
        <time>2019-04-18T12:11:52Z</time>
      </trkpt>
      <trkpt lat="44.76603" lon="4.91098">
        <ele>158</ele>
        <time>2019-04-18T12:12:52Z</time>
      </trkpt>
      <trkpt lat="44.76621" lon="4.9107">
        <ele>158</ele>
        <time>2019-04-18T12:13:52Z</time>
      </trkpt>
      <trkpt lat="44.76669" lon="4.91035">
        <ele>161</ele>
        <time>2019-04-18T12:14:52Z</time>
      </trkpt>
      <trkpt lat="44.76701" lon="4.91025">
        <ele>162</ele>
        <time>2019-04-18T12:15:52Z</time>
      </trkpt>
      <trkpt lat="44.76709" lon="4.90985">
        <ele>159</ele>
        <time>2019-04-18T12:16:52Z</time>
      </trkpt>
      <trkpt lat="44.76729" lon="4.90917">
        <ele>154</ele>
        <time>2019-04-18T12:17:52Z</time>
      </trkpt>
      <trkpt lat="44.76773" lon="4.90813">
        <ele>148</ele>
        <time>2019-04-18T12:18:52Z</time>
      </trkpt>
      <trkpt lat="44.76809" lon="4.9072">
        <ele>148</ele>
        <time>2019-04-18T12:19:52Z</time>
      </trkpt>
      <trkpt lat="44.76823" lon="4.90672">
        <ele>146</ele>
        <time>2019-04-18T12:20:52Z</time>
      </trkpt>
      <trkpt lat="44.76827" lon="4.90655">
        <ele>147</ele>
        <time>2019-04-18T12:21:52Z</time>
      </trkpt>
      <trkpt lat="44.76829" lon="4.9063">
        <ele>147</ele>
        <time>2019-04-18T12:22:52Z</time>
      </trkpt>
      <trkpt lat="44.76827" lon="4.90563">
        <ele>148</ele>
        <time>2019-04-18T12:23:52Z</time>
      </trkpt>
      <trkpt lat="44.76829" lon="4.90543">
        <ele>149</ele>
        <time>2019-04-18T12:24:52Z</time>
      </trkpt>
      <trkpt lat="44.76844" lon="4.90506">
        <ele>152</ele>
        <time>2019-04-18T12:25:52Z</time>
      </trkpt>
      <trkpt lat="44.76872" lon="4.90462">
        <ele>155</ele>
        <time>2019-04-18T12:26:52Z</time>
      </trkpt>
      <trkpt lat="44.76886" lon="4.90427">
        <ele>155</ele>
        <time>2019-04-18T12:27:52Z</time>
      </trkpt>
      <trkpt lat="44.76903" lon="4.90379">
        <ele>157</ele>
        <time>2019-04-18T12:28:52Z</time>
      </trkpt>
      <trkpt lat="44.76917" lon="4.90354">
        <ele>158</ele>
        <time>2019-04-18T12:29:52Z</time>
      </trkpt>
      <trkpt lat="44.76945" lon="4.90321">
        <ele>158</ele>
        <time>2019-04-18T12:30:52Z</time>
      </trkpt>
      <trkpt lat="44.76945" lon="4.90285">
        <ele>158</ele>
        <time>2019-04-18T12:31:52Z</time>
      </trkpt>
      <trkpt lat="44.76955" lon="4.90191">
        <ele>157</ele>
        <time>2019-04-18T12:32:52Z</time>
      </trkpt>
      <trkpt lat="44.76948" lon="4.90051">
        <ele>156</ele>
        <time>2019-04-18T12:33:52Z</time>
      </trkpt>
      <trkpt lat="44.76961" lon="4.89937">
        <ele>154</ele>
        <time>2019-04-18T12:34:52Z</time>
      </trkpt>
      <trkpt lat="44.76969" lon="4.89892">
        <ele>152</ele>
        <time>2019-04-18T12:35:52Z</time>
      </trkpt>
      <trkpt lat="44.76991" lon="4.89806">
        <ele>147</ele>
        <time>2019-04-18T12:36:52Z</time>
      </trkpt>
      <trkpt lat="44.77009" lon="4.89765">
        <ele>145</ele>
        <time>2019-04-18T12:37:52Z</time>
      </trkpt>
      <trkpt lat="44.77045" lon="4.89692">
        <ele>144</ele>
        <time>2019-04-18T12:38:52Z</time>
      </trkpt>
      <trkpt lat="44.77106" lon="4.89602">
        <ele>143</ele>
        <time>2019-04-18T12:39:52Z</time>
      </trkpt>
      <trkpt lat="44.77143" lon="4.8956">
        <ele>141</ele>
        <time>2019-04-18T12:40:52Z</time>
      </trkpt>
      <trkpt lat="44.77165" lon="4.89527">
        <ele>139</ele>
        <time>2019-04-18T12:41:52Z</time>
      </trkpt>
      <trkpt lat="44.77183" lon="4.89491">
        <ele>138</ele>
        <time>2019-04-18T12:42:52Z</time>
      </trkpt>
      <trkpt lat="44.77199" lon="4.89447">
        <ele>137</ele>
        <time>2019-04-18T12:43:52Z</time>
      </trkpt>
      <trkpt lat="44.7721" lon="4.89386">
        <ele>136</ele>
        <time>2019-04-18T12:44:52Z</time>
      </trkpt>
      <trkpt lat="44.77238" lon="4.89311">
        <ele>135</ele>
        <time>2019-04-18T12:45:52Z</time>
      </trkpt>
      <trkpt lat="44.77301" lon="4.89159">
        <ele>132</ele>
        <time>2019-04-18T12:46:52Z</time>
      </trkpt>
      <trkpt lat="44.77315" lon="4.89139">
        <ele>132</ele>
        <time>2019-04-18T12:47:52Z</time>
      </trkpt>
      <trkpt lat="44.77355" lon="4.89091">
        <ele>134</ele>
        <time>2019-04-18T12:48:52Z</time>
      </trkpt>
      <trkpt lat="44.77396" lon="4.89047">
        <ele>134</ele>
        <time>2019-04-18T12:49:52Z</time>
      </trkpt>
      <trkpt lat="44.77406" lon="4.89033">
        <ele>134</ele>
        <time>2019-04-18T12:50:52Z</time>
      </trkpt>
      <trkpt lat="44.77351" lon="4.88994">
        <ele>134</ele>
        <time>2019-04-18T12:51:52Z</time>
      </trkpt>
      <trkpt lat="44.77303" lon="4.88943">
        <ele>132</ele>
        <time>2019-04-18T12:52:52Z</time>
      </trkpt>
      <trkpt lat="44.77171" lon="4.8881">
        <ele>130</ele>
        <time>2019-04-18T12:53:52Z</time>
      </trkpt>
      <trkpt lat="44.77093" lon="4.88744">
        <ele>132</ele>
        <time>2019-04-18T12:54:52Z</time>
      </trkpt>
      <trkpt lat="44.76819" lon="4.88538">
        <ele>138</ele>
        <time>2019-04-18T12:55:52Z</time>
      </trkpt>
      <trkpt lat="44.76834" lon="4.88474">
        <ele>134</ele>
        <time>2019-04-18T12:56:52Z</time>
      </trkpt>
      <trkpt lat="44.76858" lon="4.88347">
        <ele>129</ele>
        <time>2019-04-18T12:57:52Z</time>
      </trkpt>
      <trkpt lat="44.76834" lon="4.88042">
        <ele>125</ele>
        <time>2019-04-18T12:58:52Z</time>
      </trkpt>
      <trkpt lat="44.76855" lon="4.87886">
        <ele>127</ele>
        <time>2019-04-18T12:59:52Z</time>
      </trkpt>
      <trkpt lat="44.76913" lon="4.8749">
        <ele>136</ele>
        <time>2019-04-18T13:00:52Z</time>
      </trkpt>
      <trkpt lat="44.76932" lon="4.87381">
        <ele>138</ele>
        <time>2019-04-18T13:01:52Z</time>
      </trkpt>
      <trkpt lat="44.76981" lon="4.8713">
        <ele>142</ele>
        <time>2019-04-18T13:02:52Z</time>
      </trkpt>
      <trkpt lat="44.77093" lon="4.86699">
        <ele>159</ele>
        <time>2019-04-18T13:03:52Z</time>
      </trkpt>
      <trkpt lat="44.77102" lon="4.86639">
        <ele>162</ele>
        <time>2019-04-18T13:04:52Z</time>
      </trkpt>
      <trkpt lat="44.77101" lon="4.86585">
        <ele>166</ele>
        <time>2019-04-18T13:05:52Z</time>
      </trkpt>
      <trkpt lat="44.77101" lon="4.86431">
        <ele>167</ele>
        <time>2019-04-18T13:06:52Z</time>
      </trkpt>
      <trkpt lat="44.7711" lon="4.8622">
        <ele>165</ele>
        <time>2019-04-18T13:07:52Z</time>
      </trkpt>
      <trkpt lat="44.77095" lon="4.86166">
        <ele>164</ele>
        <time>2019-04-18T13:08:52Z</time>
      </trkpt>
      <trkpt lat="44.77078" lon="4.8613">
        <ele>164</ele>
        <time>2019-04-18T13:09:52Z</time>
      </trkpt>
      <trkpt lat="44.77076" lon="4.86105">
        <ele>164</ele>
        <time>2019-04-18T13:10:52Z</time>
      </trkpt>
      <trkpt lat="44.77085" lon="4.86027">
        <ele>166</ele>
        <time>2019-04-18T13:11:52Z</time>
      </trkpt>
      <trkpt lat="44.77102" lon="4.85937">
        <ele>169</ele>
        <time>2019-04-18T13:12:52Z</time>
      </trkpt>
      <trkpt lat="44.77104" lon="4.85836">
        <ele>171</ele>
        <time>2019-04-18T13:13:52Z</time>
      </trkpt>
      <trkpt lat="44.77126" lon="4.8579">
        <ele>171</ele>
        <time>2019-04-18T13:14:52Z</time>
      </trkpt>
      <trkpt lat="44.7718" lon="4.85557">
        <ele>170</ele>
        <time>2019-04-18T13:15:52Z</time>
      </trkpt>
      <trkpt lat="44.77187" lon="4.85488">
        <ele>168</ele>
        <time>2019-04-18T13:16:52Z</time>
      </trkpt>
      <trkpt lat="44.77175" lon="4.85362">
        <ele>168</ele>
        <time>2019-04-18T13:17:52Z</time>
      </trkpt>
      <trkpt lat="44.77134" lon="4.85265">
        <ele>165</ele>
        <time>2019-04-18T13:18:52Z</time>
      </trkpt>
      <trkpt lat="44.77134" lon="4.85248">
        <ele>164</ele>
        <time>2019-04-18T13:19:52Z</time>
      </trkpt>
      <trkpt lat="44.77142" lon="4.85234">
        <ele>164</ele>
        <time>2019-04-18T13:20:52Z</time>
      </trkpt>
      <trkpt lat="44.77155" lon="4.8522">
        <ele>164</ele>
        <time>2019-04-18T13:21:52Z</time>
      </trkpt>
      <trkpt lat="44.77168" lon="4.85202">
        <ele>164</ele>
        <time>2019-04-18T13:22:52Z</time>
      </trkpt>
      <trkpt lat="44.77177" lon="4.85177">
        <ele>163</ele>
        <time>2019-04-18T13:23:52Z</time>
      </trkpt>
      <trkpt lat="44.77181" lon="4.85142">
        <ele>164</ele>
        <time>2019-04-18T13:24:52Z</time>
      </trkpt>
      <trkpt lat="44.77188" lon="4.85065">
        <ele>164</ele>
        <time>2019-04-18T13:25:52Z</time>
      </trkpt>
      <trkpt lat="44.77188" lon="4.85026">
        <ele>165</ele>
        <time>2019-04-18T13:26:52Z</time>
      </trkpt>
      <trkpt lat="44.77178" lon="4.84955">
        <ele>163</ele>
        <time>2019-04-18T13:27:52Z</time>
      </trkpt>
      <trkpt lat="44.7717" lon="4.84933">
        <ele>163</ele>
        <time>2019-04-18T13:28:52Z</time>
      </trkpt>
      <trkpt lat="44.77133" lon="4.84887">
        <ele>167</ele>
        <time>2019-04-18T13:29:52Z</time>
      </trkpt>
      <trkpt lat="44.77121" lon="4.84864">
        <ele>167</ele>
        <time>2019-04-18T13:30:52Z</time>
      </trkpt>
      <trkpt lat="44.77109" lon="4.84807">
        <ele>167</ele>
        <time>2019-04-18T13:31:52Z</time>
      </trkpt>
      <trkpt lat="44.77109" lon="4.84799">
        <ele>167</ele>
        <time>2019-04-18T13:32:52Z</time>
      </trkpt>
      <trkpt lat="44.77111" lon="4.84789">
        <ele>167</ele>
        <time>2019-04-18T13:33:52Z</time>
      </trkpt>
      <trkpt lat="44.77117" lon="4.84779">
        <ele>167</ele>
        <time>2019-04-18T13:34:52Z</time>
      </trkpt>
      <trkpt lat="44.77105" lon="4.84686">
        <ele>169</ele>
        <time>2019-04-18T13:35:52Z</time>
      </trkpt>
      <trkpt lat="44.77107" lon="4.84669">
        <ele>168</ele>
        <time>2019-04-18T13:36:52Z</time>
      </trkpt>
      <trkpt lat="44.77105" lon="4.8466">
        <ele>169</ele>
        <time>2019-04-18T13:37:52Z</time>
      </trkpt>
      <trkpt lat="44.77099" lon="4.84651">
        <ele>169</ele>
        <time>2019-04-18T13:38:52Z</time>
      </trkpt>
      <trkpt lat="44.77092" lon="4.84649">
        <ele>170</ele>
        <time>2019-04-18T13:39:52Z</time>
      </trkpt>
      <trkpt lat="44.77081" lon="4.8464">
        <ele>172</ele>
        <time>2019-04-18T13:40:52Z</time>
      </trkpt>
      <trkpt lat="44.7709" lon="4.8461">
        <ele>170</ele>
        <time>2019-04-18T13:41:52Z</time>
      </trkpt>
      <trkpt lat="44.77084" lon="4.84609">
        <ele>171</ele>
        <time>2019-04-18T13:42:52Z</time>
      </trkpt>
      <trkpt lat="44.7708" lon="4.84606">
        <ele>172</ele>
        <time>2019-04-18T13:43:52Z</time>
      </trkpt>
      <trkpt lat="44.77094" lon="4.84545">
        <ele>166</ele>
        <time>2019-04-18T13:44:52Z</time>
      </trkpt>
      <trkpt lat="44.77106" lon="4.84512">
        <ele>162</ele>
        <time>2019-04-18T13:45:52Z</time>
      </trkpt>
      <trkpt lat="44.77119" lon="4.84485">
        <ele>158</ele>
        <time>2019-04-18T13:46:52Z</time>
      </trkpt>
      <trkpt lat="44.77101" lon="4.84465">
        <ele>158</ele>
        <time>2019-04-18T13:47:52Z</time>
      </trkpt>
      <trkpt lat="44.77051" lon="4.84427">
        <ele>162</ele>
        <time>2019-04-18T13:48:52Z</time>
      </trkpt>
      <trkpt lat="44.77032" lon="4.84401">
        <ele>162</ele>
        <time>2019-04-18T13:49:52Z</time>
      </trkpt>
      <trkpt lat="44.77011" lon="4.84344">
        <ele>159</ele>
        <time>2019-04-18T13:50:52Z</time>
      </trkpt>
      <trkpt lat="44.77005" lon="4.84334">
        <ele>159</ele>
        <time>2019-04-18T13:51:52Z</time>
      </trkpt>
      <trkpt lat="44.76992" lon="4.84319">
        <ele>156</ele>
        <time>2019-04-18T13:52:52Z</time>
      </trkpt>
      <trkpt lat="44.76993" lon="4.84291">
        <ele>149</ele>
        <time>2019-04-18T13:53:52Z</time>
      </trkpt>
      <trkpt lat="44.76928" lon="4.84246">
        <ele>142</ele>
        <time>2019-04-18T13:54:52Z</time>
      </trkpt>
      <trkpt lat="44.76896" lon="4.84232">
        <ele>138</ele>
        <time>2019-04-18T13:55:52Z</time>
      </trkpt>
      <trkpt lat="44.76759" lon="4.84216">
        <ele>122</ele>
        <time>2019-04-18T13:56:52Z</time>
      </trkpt>
      <trkpt lat="44.76754" lon="4.84175">
        <ele>119</ele>
        <time>2019-04-18T13:57:52Z</time>
      </trkpt>
      <trkpt lat="44.76771" lon="4.84063">
        <ele>117</ele>
        <time>2019-04-18T13:58:52Z</time>
      </trkpt>
      <trkpt lat="44.7677" lon="4.8403">
        <ele>116</ele>
        <time>2019-04-18T13:59:52Z</time>
      </trkpt>
      <trkpt lat="44.76941" lon="4.83488">
        <ele>109</ele>
        <time>2019-04-18T14:00:52Z</time>
      </trkpt>
      <trkpt lat="44.77" lon="4.83307">
        <ele>109</ele>
        <time>2019-04-18T14:01:52Z</time>
      </trkpt>
      <trkpt lat="44.77017" lon="4.83268">
        <ele>109</ele>
        <time>2019-04-18T14:02:52Z</time>
      </trkpt>
      <trkpt lat="44.77065" lon="4.83205">
        <ele>107</ele>
        <time>2019-04-18T14:03:52Z</time>
      </trkpt>
      <trkpt lat="44.77074" lon="4.83179">
        <ele>106</ele>
        <time>2019-04-18T14:04:52Z</time>
      </trkpt>
      <trkpt lat="44.77083" lon="4.83093">
        <ele>108</ele>
        <time>2019-04-18T14:05:52Z</time>
      </trkpt>
      <trkpt lat="44.77091" lon="4.8305">
        <ele>108</ele>
        <time>2019-04-18T14:06:52Z</time>
      </trkpt>
      <trkpt lat="44.771" lon="4.8301">
        <ele>109</ele>
        <time>2019-04-18T14:07:52Z</time>
      </trkpt>
      <trkpt lat="44.77105" lon="4.82975">
        <ele>109</ele>
        <time>2019-04-18T14:08:52Z</time>
      </trkpt>
      <trkpt lat="44.77074" lon="4.82931">
        <ele>108</ele>
        <time>2019-04-18T14:09:52Z</time>
      </trkpt>
      <trkpt lat="44.77057" lon="4.82895">
        <ele>109</ele>
        <time>2019-04-18T14:10:52Z</time>
      </trkpt>
      <trkpt lat="44.77051" lon="4.82871">
        <ele>108</ele>
        <time>2019-04-18T14:11:52Z</time>
      </trkpt>
      <trkpt lat="44.77051" lon="4.82852">
        <ele>108</ele>
        <time>2019-04-18T14:12:52Z</time>
      </trkpt>
      <trkpt lat="44.77052" lon="4.82841">
        <ele>108</ele>
        <time>2019-04-18T14:13:52Z</time>
      </trkpt>
      <trkpt lat="44.77044" lon="4.82834">
        <ele>107</ele>
        <time>2019-04-18T14:14:52Z</time>
      </trkpt>
      <trkpt lat="44.77034" lon="4.82809">
        <ele>107</ele>
        <time>2019-04-18T14:15:52Z</time>
      </trkpt>
      <trkpt lat="44.7703" lon="4.82747">
        <ele>107</ele>
        <time>2019-04-18T14:16:52Z</time>
      </trkpt>
      <trkpt lat="44.77035" lon="4.8272">
        <ele>106</ele>
        <time>2019-04-18T14:17:52Z</time>
      </trkpt>
      <trkpt lat="44.77054" lon="4.8268">
        <ele>106</ele>
        <time>2019-04-18T14:18:52Z</time>
      </trkpt>
      <trkpt lat="44.77093" lon="4.82616">
        <ele>106</ele>
        <time>2019-04-18T14:19:52Z</time>
      </trkpt>
      <trkpt lat="44.77109" lon="4.8258">
        <ele>106</ele>
        <time>2019-04-18T14:20:52Z</time>
      </trkpt>
      <trkpt lat="44.77112" lon="4.82538">
        <ele>107</ele>
        <time>2019-04-18T14:21:52Z</time>
      </trkpt>
      <trkpt lat="44.77126" lon="4.82488">
        <ele>107</ele>
        <time>2019-04-18T14:22:52Z</time>
      </trkpt>
      <trkpt lat="44.77135" lon="4.82478">
        <ele>107</ele>
        <time>2019-04-18T14:23:52Z</time>
      </trkpt>
      <trkpt lat="44.77149" lon="4.82477">
        <ele>107</ele>
        <time>2019-04-18T14:24:52Z</time>
      </trkpt>
      <trkpt lat="44.77269" lon="4.82527">
        <ele>106</ele>
        <time>2019-04-18T14:25:52Z</time>
      </trkpt>
      <trkpt lat="44.77283" lon="4.82529">
        <ele>106</ele>
        <time>2019-04-18T14:26:52Z</time>
      </trkpt>
      <trkpt lat="44.77293" lon="4.82434">
        <ele>106</ele>
        <time>2019-04-18T14:27:52Z</time>
      </trkpt>
      <trkpt lat="44.77292" lon="4.82262">
        <ele>105</ele>
        <time>2019-04-18T14:28:52Z</time>
      </trkpt>
      <trkpt lat="44.77285" lon="4.8205">
        <ele>105</ele>
        <time>2019-04-18T14:29:52Z</time>
      </trkpt>
      <trkpt lat="44.77272" lon="4.8198">
        <ele>105</ele>
        <time>2019-04-18T14:30:52Z</time>
      </trkpt>
      <trkpt lat="44.77246" lon="4.81912">
        <ele>104</ele>
        <time>2019-04-18T14:31:52Z</time>
      </trkpt>
      <trkpt lat="44.77237" lon="4.81879">
        <ele>103</ele>
        <time>2019-04-18T14:32:52Z</time>
      </trkpt>
      <trkpt lat="44.77241" lon="4.81839">
        <ele>103</ele>
        <time>2019-04-18T14:33:52Z</time>
      </trkpt>
      <trkpt lat="44.77255" lon="4.81788">
        <ele>103</ele>
        <time>2019-04-18T14:34:52Z</time>
      </trkpt>
      <trkpt lat="44.77306" lon="4.81666">
        <ele>102</ele>
        <time>2019-04-18T14:35:52Z</time>
      </trkpt>
      <trkpt lat="44.77321" lon="4.8161">
        <ele>103</ele>
        <time>2019-04-18T14:36:52Z</time>
      </trkpt>
      <trkpt lat="44.77322" lon="4.8156">
        <ele>103</ele>
        <time>2019-04-18T14:37:52Z</time>
      </trkpt>
      <trkpt lat="44.77318" lon="4.81525">
        <ele>103</ele>
        <time>2019-04-18T14:38:52Z</time>
      </trkpt>
      <trkpt lat="44.77365" lon="4.81274">
        <ele>102</ele>
        <time>2019-04-18T14:39:52Z</time>
      </trkpt>
      <trkpt lat="44.77427" lon="4.8107">
        <ele>102</ele>
        <time>2019-04-18T14:40:52Z</time>
      </trkpt>
      <trkpt lat="44.77704" lon="4.80227">
        <ele>98</ele>
        <time>2019-04-18T14:41:52Z</time>
      </trkpt>
      <trkpt lat="44.77844" lon="4.7953">
        <ele>97</ele>
        <time>2019-04-18T14:42:52Z</time>
      </trkpt>
      <trkpt lat="44.77813" lon="4.7952">
        <ele>97</ele>
        <time>2019-04-18T14:43:52Z</time>
      </trkpt>
      <trkpt lat="44.77737" lon="4.79506">
        <ele>96</ele>
        <time>2019-04-18T14:44:52Z</time>
      </trkpt>
      <trkpt lat="44.77578" lon="4.79462">
        <ele>96</ele>
        <time>2019-04-18T14:45:52Z</time>
      </trkpt>
      <trkpt lat="44.77562" lon="4.79456">
        <ele>96</ele>
        <time>2019-04-18T14:46:52Z</time>
      </trkpt>
      <trkpt lat="44.77557" lon="4.79443">
        <ele>96</ele>
        <time>2019-04-18T14:47:52Z</time>
      </trkpt>
      <trkpt lat="44.77536" lon="4.79381">
        <ele>97</ele>
        <time>2019-04-18T14:48:52Z</time>
      </trkpt>
      <trkpt lat="44.77514" lon="4.79303">
        <ele>97</ele>
        <time>2019-04-18T14:49:52Z</time>
      </trkpt>
      <trkpt lat="44.77498" lon="4.79202">
        <ele>95</ele>
        <time>2019-04-18T14:50:52Z</time>
      </trkpt>
      <trkpt lat="44.77486" lon="4.79005">
        <ele>95</ele>
        <time>2019-04-18T14:51:52Z</time>
      </trkpt>
      <trkpt lat="44.77477" lon="4.7897">
        <ele>95</ele>
        <time>2019-04-18T14:52:52Z</time>
      </trkpt>
      <trkpt lat="44.77437" lon="4.78898">
        <ele>95</ele>
        <time>2019-04-18T14:53:52Z</time>
      </trkpt>
      <trkpt lat="44.77428" lon="4.78884">
        <ele>95</ele>
        <time>2019-04-18T14:54:52Z</time>
      </trkpt>
      <trkpt lat="44.77421" lon="4.78866">
        <ele>95</ele>
        <time>2019-04-18T14:55:52Z</time>
      </trkpt>
      <trkpt lat="44.77417" lon="4.78847">
        <ele>94</ele>
        <time>2019-04-18T14:56:52Z</time>
      </trkpt>
      <trkpt lat="44.77415" lon="4.78812">
        <ele>94</ele>
        <time>2019-04-18T14:57:52Z</time>
      </trkpt>
      <trkpt lat="44.7742" lon="4.7878">
        <ele>95</ele>
        <time>2019-04-18T14:58:52Z</time>
      </trkpt>
      <trkpt lat="44.77421" lon="4.78765">
        <ele>95</ele>
        <time>2019-04-18T14:59:52Z</time>
      </trkpt>
      <trkpt lat="44.77424" lon="4.78748">
        <ele>95</ele>
        <time>2019-04-18T15:00:52Z</time>
      </trkpt>
      <trkpt lat="44.7743" lon="4.78733">
        <ele>95</ele>
        <time>2019-04-18T15:01:52Z</time>
      </trkpt>
      <trkpt lat="44.77446" lon="4.7871">
        <ele>94</ele>
        <time>2019-04-18T15:02:52Z</time>
      </trkpt>
      <trkpt lat="44.77506" lon="4.78629">
        <ele>93</ele>
        <time>2019-04-18T15:03:52Z</time>
      </trkpt>
      <trkpt lat="44.77523" lon="4.78598">
        <ele>94</ele>
        <time>2019-04-18T15:04:52Z</time>
      </trkpt>
      <trkpt lat="44.77529" lon="4.7858">
        <ele>94</ele>
        <time>2019-04-18T15:05:52Z</time>
      </trkpt>
      <trkpt lat="44.77607" lon="4.78281">
        <ele>92</ele>
        <time>2019-04-18T15:06:52Z</time>
      </trkpt>
      <trkpt lat="44.77617" lon="4.78241">
        <ele>92</ele>
        <time>2019-04-18T15:07:52Z</time>
      </trkpt>
      <trkpt lat="44.77622" lon="4.78203">
        <ele>92</ele>
        <time>2019-04-18T15:08:52Z</time>
      </trkpt>
      <trkpt lat="44.77642" lon="4.78124">
        <ele>91</ele>
        <time>2019-04-18T15:09:52Z</time>
      </trkpt>
      <trkpt lat="44.77682" lon="4.77899">
        <ele>92</ele>
        <time>2019-04-18T15:10:52Z</time>
      </trkpt>
      <trkpt lat="44.77687" lon="4.77885">
        <ele>92</ele>
        <time>2019-04-18T15:11:52Z</time>
      </trkpt>
      <trkpt lat="44.77695" lon="4.77756">
        <ele>91</ele>
        <time>2019-04-18T15:12:52Z</time>
      </trkpt>
      <trkpt lat="44.77699" lon="4.77741">
        <ele>91</ele>
        <time>2019-04-18T15:13:52Z</time>
      </trkpt>
      <trkpt lat="44.77709" lon="4.77725">
        <ele>91</ele>
        <time>2019-04-18T15:14:52Z</time>
      </trkpt>
      <trkpt lat="44.77752" lon="4.77684">
        <ele>90</ele>
        <time>2019-04-18T15:15:52Z</time>
      </trkpt>
      <trkpt lat="44.7776" lon="4.7768">
        <ele>90</ele>
        <time>2019-04-18T15:16:52Z</time>
      </trkpt>
      <trkpt lat="44.77767" lon="4.7768">
        <ele>90</ele>
        <time>2019-04-18T15:17:52Z</time>
      </trkpt>
      <trkpt lat="44.77779" lon="4.77684">
        <ele>90</ele>
        <time>2019-04-18T15:18:52Z</time>
      </trkpt>
      <trkpt lat="44.77811" lon="4.77703">
        <ele>91</ele>
        <time>2019-04-18T15:19:52Z</time>
      </trkpt>
      <trkpt lat="44.77885" lon="4.77741">
        <ele>91</ele>
        <time>2019-04-18T15:20:52Z</time>
      </trkpt>
      <trkpt lat="44.77892" lon="4.77742">
        <ele>91</ele>
        <time>2019-04-18T15:21:52Z</time>
      </trkpt>
      <trkpt lat="44.779" lon="4.77738">
        <ele>91</ele>
        <time>2019-04-18T15:22:52Z</time>
      </trkpt>
      <trkpt lat="44.77905" lon="4.7773">
        <ele>91</ele>
        <time>2019-04-18T15:23:52Z</time>
      </trkpt>
      <trkpt lat="44.77943" lon="4.77627">
        <ele>91</ele>
        <time>2019-04-18T15:24:52Z</time>
      </trkpt>
      <trkpt lat="44.77979" lon="4.77538">
        <ele>90</ele>
        <time>2019-04-18T15:25:52Z</time>
      </trkpt>
      <trkpt lat="44.78021" lon="4.77428">
        <ele>91</ele>
        <time>2019-04-18T15:26:52Z</time>
      </trkpt>
      <trkpt lat="44.78026" lon="4.77421">
        <ele>91</ele>
        <time>2019-04-18T15:27:52Z</time>
      </trkpt>
      <trkpt lat="44.78034" lon="4.77419">
        <ele>91</ele>
        <time>2019-04-18T15:28:52Z</time>
      </trkpt>
      <trkpt lat="44.78044" lon="4.77419">
        <ele>91</ele>
        <time>2019-04-18T15:29:52Z</time>
      </trkpt>
      <trkpt lat="44.781" lon="4.77436">
        <ele>92</ele>
        <time>2019-04-18T15:30:52Z</time>
      </trkpt>
      <trkpt lat="44.78107" lon="4.77433">
        <ele>92</ele>
        <time>2019-04-18T15:31:52Z</time>
      </trkpt>
      <trkpt lat="44.78128" lon="4.77414">
        <ele>92</ele>
        <time>2019-04-18T15:32:52Z</time>
      </trkpt>
      <trkpt lat="44.78133" lon="4.77413">
        <ele>92</ele>
        <time>2019-04-18T15:33:52Z</time>
      </trkpt>
      <trkpt lat="44.7814" lon="4.77413">
        <ele>92</ele>
        <time>2019-04-18T15:34:52Z</time>
      </trkpt>
      <trkpt lat="44.7815" lon="4.77427">
        <ele>92</ele>
        <time>2019-04-18T15:35:52Z</time>
      </trkpt>
      <trkpt lat="44.78156" lon="4.77427">
        <ele>92</ele>
        <time>2019-04-18T15:36:52Z</time>
      </trkpt>
      <trkpt lat="44.78159" lon="4.7742">
        <ele>92</ele>
        <time>2019-04-18T15:37:52Z</time>
      </trkpt>
      <trkpt lat="44.78159" lon="4.77414">
        <ele>92</ele>
        <time>2019-04-18T15:38:52Z</time>
      </trkpt>
      <trkpt lat="44.78152" lon="4.77391">
        <ele>91</ele>
        <time>2019-04-18T15:39:52Z</time>
      </trkpt>
      <trkpt lat="44.78151" lon="4.7738">
        <ele>91</ele>
        <time>2019-04-18T15:40:52Z</time>
      </trkpt>
      <trkpt lat="44.78154" lon="4.77372">
        <ele>90</ele>
        <time>2019-04-18T15:41:52Z</time>
      </trkpt>
      <trkpt lat="44.78159" lon="4.77367">
        <ele>90</ele>
        <time>2019-04-18T15:42:52Z</time>
      </trkpt>
      <trkpt lat="44.78166" lon="4.77365">
        <ele>90</ele>
        <time>2019-04-18T15:43:52Z</time>
      </trkpt>
      <trkpt lat="44.78175" lon="4.77368">
        <ele>90</ele>
        <time>2019-04-18T15:44:52Z</time>
      </trkpt>
      <trkpt lat="44.7819" lon="4.77385">
        <ele>91</ele>
        <time>2019-04-18T15:45:52Z</time>
      </trkpt>
      <trkpt lat="44.78209" lon="4.77398">
        <ele>91</ele>
        <time>2019-04-18T15:46:52Z</time>
      </trkpt>
      <trkpt lat="44.78218" lon="4.77411">
        <ele>91</ele>
        <time>2019-04-18T15:47:52Z</time>
      </trkpt>
      <trkpt lat="44.78235" lon="4.77418">
        <ele>91</ele>
        <time>2019-04-18T15:48:52Z</time>
      </trkpt>
      <trkpt lat="44.78398" lon="4.77478">
        <ele>92</ele>
        <time>2019-04-18T15:49:52Z</time>
      </trkpt>
      <trkpt lat="44.78564" lon="4.77532">
        <ele>92</ele>
        <time>2019-04-18T15:50:52Z</time>
      </trkpt>
      <trkpt lat="44.78589" lon="4.77544">
        <ele>92</ele>
        <time>2019-04-18T15:51:52Z</time>
      </trkpt>
      <trkpt lat="44.78629" lon="4.77569">
        <ele>92</ele>
        <time>2019-04-18T15:52:52Z</time>
      </trkpt>
      <trkpt lat="44.78703" lon="4.77621">
        <ele>92</ele>
        <time>2019-04-18T15:53:52Z</time>
      </trkpt>
      <trkpt lat="44.78772" lon="4.77664">
        <ele>93</ele>
        <time>2019-04-18T15:54:52Z</time>
      </trkpt>
      <trkpt lat="44.78814" lon="4.77695">
        <ele>92</ele>
        <time>2019-04-18T15:55:52Z</time>
      </trkpt>
      <trkpt lat="44.78899" lon="4.77767">
        <ele>91</ele>
        <time>2019-04-18T15:56:52Z</time>
      </trkpt>
      <trkpt lat="44.79003" lon="4.77863">
        <ele>91</ele>
        <time>2019-04-18T15:57:52Z</time>
      </trkpt>
      <trkpt lat="44.79073" lon="4.77924">
        <ele>91</ele>
        <time>2019-04-18T15:58:52Z</time>
      </trkpt>
      <trkpt lat="44.79154" lon="4.7799">
        <ele>93</ele>
        <time>2019-04-18T15:59:52Z</time>
      </trkpt>
      <trkpt lat="44.79213" lon="4.7804">
        <ele>92</ele>
        <time>2019-04-18T16:00:52Z</time>
      </trkpt>
      <trkpt lat="44.79236" lon="4.78057">
        <ele>92</ele>
        <time>2019-04-18T16:01:52Z</time>
      </trkpt>
      <trkpt lat="44.79283" lon="4.78085">
        <ele>92</ele>
        <time>2019-04-18T16:02:52Z</time>
      </trkpt>
      <trkpt lat="44.79328" lon="4.78123">
        <ele>92</ele>
        <time>2019-04-18T16:03:52Z</time>
      </trkpt>
      <trkpt lat="44.79338" lon="4.78136">
        <ele>92</ele>
        <time>2019-04-18T16:04:52Z</time>
      </trkpt>
      <trkpt lat="44.79356" lon="4.7815">
        <ele>93</ele>
        <time>2019-04-18T16:05:52Z</time>
      </trkpt>
      <trkpt lat="44.79361" lon="4.78152">
        <ele>93</ele>
        <time>2019-04-18T16:06:52Z</time>
      </trkpt>
      <trkpt lat="44.79434" lon="4.78196">
        <ele>95</ele>
        <time>2019-04-18T16:07:52Z</time>
      </trkpt>
      <trkpt lat="44.79478" lon="4.78253">
        <ele>94</ele>
        <time>2019-04-18T16:08:52Z</time>
      </trkpt>
      <trkpt lat="44.79503" lon="4.78278">
        <ele>93</ele>
        <time>2019-04-18T16:09:52Z</time>
      </trkpt>
      <trkpt lat="44.79586" lon="4.78322">
        <ele>94</ele>
        <time>2019-04-18T16:10:52Z</time>
      </trkpt>
      <trkpt lat="44.79655" lon="4.78367">
        <ele>95</ele>
        <time>2019-04-18T16:11:52Z</time>
      </trkpt>
      <trkpt lat="44.79827" lon="4.78515">
        <ele>92</ele>
        <time>2019-04-18T16:12:52Z</time>
      </trkpt>
      <trkpt lat="44.79847" lon="4.78531">
        <ele>93</ele>
        <time>2019-04-18T16:13:52Z</time>
      </trkpt>
      <trkpt lat="44.79889" lon="4.78571">
        <ele>93</ele>
        <time>2019-04-18T16:14:52Z</time>
      </trkpt>
      <trkpt lat="44.80121" lon="4.78325">
        <ele>94</ele>
        <time>2019-04-18T16:15:52Z</time>
      </trkpt>
      <trkpt lat="44.80102" lon="4.78319">
        <ele>94</ele>
        <time>2019-04-18T16:16:52Z</time>
      </trkpt>
      <trkpt lat="44.80062" lon="4.78266">
        <ele>94</ele>
        <time>2019-04-18T16:17:52Z</time>
      </trkpt>
      <trkpt lat="44.8006" lon="4.78269">
        <ele>94</ele>
        <time>2019-04-18T16:18:52Z</time>
      </trkpt>
      <trkpt lat="44.80051" lon="4.7829">
        <ele>93</ele>
        <time>2019-04-18T16:19:52Z</time>
      </trkpt>
      <trkpt lat="44.8005" lon="4.78289">
        <ele>93</ele>
        <time>2019-04-18T16:20:52Z</time>
      </trkpt>
      <trkpt lat="44.80093" lon="4.7835">
        <ele>93</ele>
        <time>2019-04-18T16:21:52Z</time>
      </trkpt>
      <trkpt lat="44.80134" lon="4.78401">
        <ele>94</ele>
        <time>2019-04-18T16:22:52Z</time>
      </trkpt>
      <trkpt lat="44.80182" lon="4.78477">
        <ele>94</ele>
        <time>2019-04-18T16:23:52Z</time>
      </trkpt>
      <trkpt lat="44.80227" lon="4.78592">
        <ele>94</ele>
        <time>2019-04-18T16:24:52Z</time>
      </trkpt>
      <trkpt lat="44.80295" lon="4.78779">
        <ele>95</ele>
        <time>2019-04-18T16:25:52Z</time>
      </trkpt>
      <trkpt lat="44.80304" lon="4.78835">
        <ele>94</ele>
        <time>2019-04-18T16:26:52Z</time>
      </trkpt>
      <trkpt lat="44.80332" lon="4.78918">
        <ele>97</ele>
        <time>2019-04-18T16:27:52Z</time>
      </trkpt>
      <trkpt lat="44.80345" lon="4.78966">
        <ele>95</ele>
        <time>2019-04-18T16:28:52Z</time>
      </trkpt>
      <trkpt lat="44.80391" lon="4.7908">
        <ele>94</ele>
        <time>2019-04-18T16:29:52Z</time>
      </trkpt>
      <trkpt lat="44.80414" lon="4.79146">
        <ele>93</ele>
        <time>2019-04-18T16:30:52Z</time>
      </trkpt>
      <trkpt lat="44.80424" lon="4.79203">
        <ele>92</ele>
        <time>2019-04-18T16:31:52Z</time>
      </trkpt>
      <trkpt lat="44.80435" lon="4.79229">
        <ele>92</ele>
        <time>2019-04-18T16:32:52Z</time>
      </trkpt>
      <trkpt lat="44.80442" lon="4.7924">
        <ele>92</ele>
        <time>2019-04-18T16:33:52Z</time>
      </trkpt>
      <trkpt lat="44.80451" lon="4.79247">
        <ele>92</ele>
        <time>2019-04-18T16:34:52Z</time>
      </trkpt>
      <trkpt lat="44.80455" lon="4.79254">
        <ele>92</ele>
        <time>2019-04-18T16:35:52Z</time>
      </trkpt>
      <trkpt lat="44.80456" lon="4.79283">
        <ele>92</ele>
        <time>2019-04-18T16:36:52Z</time>
      </trkpt>
      <trkpt lat="44.80462" lon="4.79307">
        <ele>93</ele>
        <time>2019-04-18T16:37:52Z</time>
      </trkpt>
      <trkpt lat="44.80491" lon="4.79345">
        <ele>94</ele>
        <time>2019-04-18T16:38:52Z</time>
      </trkpt>
      <trkpt lat="44.80505" lon="4.79381">
        <ele>93</ele>
        <time>2019-04-18T16:39:52Z</time>
      </trkpt>
      <trkpt lat="44.80512" lon="4.79405">
        <ele>93</ele>
        <time>2019-04-18T16:40:52Z</time>
      </trkpt>
      <trkpt lat="44.80524" lon="4.79417">
        <ele>93</ele>
        <time>2019-04-18T16:41:52Z</time>
      </trkpt>
      <trkpt lat="44.80526" lon="4.79421">
        <ele>93</ele>
        <time>2019-04-18T16:42:52Z</time>
      </trkpt>
      <trkpt lat="44.80525" lon="4.79441">
        <ele>93</ele>
        <time>2019-04-18T16:43:52Z</time>
      </trkpt>
      <trkpt lat="44.80539" lon="4.79492">
        <ele>94</ele>
        <time>2019-04-18T16:44:52Z</time>
      </trkpt>
      <trkpt lat="44.8055" lon="4.79573">
        <ele>94</ele>
        <time>2019-04-18T16:45:52Z</time>
      </trkpt>
      <trkpt lat="44.80574" lon="4.79651">
        <ele>93</ele>
        <time>2019-04-18T16:46:52Z</time>
      </trkpt>
      <trkpt lat="44.80589" lon="4.79686">
        <ele>93</ele>
        <time>2019-04-18T16:47:52Z</time>
      </trkpt>
      <trkpt lat="44.80602" lon="4.79704">
        <ele>94</ele>
        <time>2019-04-18T16:48:52Z</time>
      </trkpt>
      <trkpt lat="44.80684" lon="4.79785">
        <ele>97</ele>
        <time>2019-04-18T16:49:52Z</time>
      </trkpt>
      <trkpt lat="44.80706" lon="4.79813">
        <ele>98</ele>
        <time>2019-04-18T16:50:52Z</time>
      </trkpt>
      <trkpt lat="44.80736" lon="4.79842">
        <ele>99</ele>
        <time>2019-04-18T16:51:52Z</time>
      </trkpt>
      <trkpt lat="44.80745" lon="4.79861">
        <ele>98</ele>
        <time>2019-04-18T16:52:52Z</time>
      </trkpt>
      <trkpt lat="44.80751" lon="4.79869">
        <ele>98</ele>
        <time>2019-04-18T16:53:52Z</time>
      </trkpt>
      <trkpt lat="44.8077" lon="4.79885">
        <ele>97</ele>
        <time>2019-04-18T16:54:52Z</time>
      </trkpt>
      <trkpt lat="44.80786" lon="4.79892">
        <ele>97</ele>
        <time>2019-04-18T16:55:52Z</time>
      </trkpt>
      <trkpt lat="44.80849" lon="4.79944">
        <ele>95</ele>
        <time>2019-04-18T16:56:52Z</time>
      </trkpt>
      <trkpt lat="44.80877" lon="4.79975">
        <ele>94</ele>
        <time>2019-04-18T16:57:52Z</time>
      </trkpt>
      <trkpt lat="44.8098" lon="4.80039">
        <ele>96</ele>
        <time>2019-04-18T16:58:52Z</time>
      </trkpt>
      <trkpt lat="44.81015" lon="4.80055">
        <ele>96</ele>
        <time>2019-04-18T16:59:52Z</time>
      </trkpt>
      <trkpt lat="44.81108" lon="4.80078">
        <ele>97</ele>
        <time>2019-04-18T17:00:52Z</time>
      </trkpt>
      <trkpt lat="44.81222" lon="4.80097">
        <ele>93</ele>
        <time>2019-04-18T17:01:52Z</time>
      </trkpt>
      <trkpt lat="44.81254" lon="4.80098">
        <ele>92</ele>
        <time>2019-04-18T17:02:52Z</time>
      </trkpt>
      <trkpt lat="44.8131" lon="4.80092">
        <ele>94</ele>
        <time>2019-04-18T17:03:52Z</time>
      </trkpt>
      <trkpt lat="44.8136" lon="4.80112">
        <ele>95</ele>
        <time>2019-04-18T17:04:52Z</time>
      </trkpt>
      <trkpt lat="44.81413" lon="4.80117">
        <ele>98</ele>
        <time>2019-04-18T17:05:52Z</time>
      </trkpt>
      <trkpt lat="44.81496" lon="4.80129">
        <ele>97</ele>
        <time>2019-04-18T17:06:52Z</time>
      </trkpt>
      <trkpt lat="44.81549" lon="4.80139">
        <ele>96</ele>
        <time>2019-04-18T17:07:52Z</time>
      </trkpt>
      <trkpt lat="44.81608" lon="4.80145">
        <ele>94</ele>
        <time>2019-04-18T17:08:52Z</time>
      </trkpt>
      <trkpt lat="44.81701" lon="4.8015">
        <ele>94</ele>
        <time>2019-04-18T17:09:52Z</time>
      </trkpt>
      <trkpt lat="44.81818" lon="4.80136">
        <ele>93</ele>
        <time>2019-04-18T17:10:52Z</time>
      </trkpt>
      <trkpt lat="44.81943" lon="4.80116">
        <ele>95</ele>
        <time>2019-04-18T17:11:52Z</time>
      </trkpt>
      <trkpt lat="44.82022" lon="4.80109">
        <ele>95</ele>
        <time>2019-04-18T17:12:52Z</time>
      </trkpt>
      <trkpt lat="44.8208" lon="4.80101">
        <ele>94</ele>
        <time>2019-04-18T17:13:52Z</time>
      </trkpt>
      <trkpt lat="44.82109" lon="4.80094">
        <ele>94</ele>
        <time>2019-04-18T17:14:52Z</time>
      </trkpt>
      <trkpt lat="44.82137" lon="4.80082">
        <ele>94</ele>
        <time>2019-04-18T17:15:52Z</time>
      </trkpt>
      <trkpt lat="44.82186" lon="4.80049">
        <ele>95</ele>
        <time>2019-04-18T17:16:52Z</time>
      </trkpt>
      <trkpt lat="44.82192" lon="4.8004">
        <ele>95</ele>
        <time>2019-04-18T17:17:52Z</time>
      </trkpt>
      <trkpt lat="44.82206" lon="4.80006">
        <ele>96</ele>
        <time>2019-04-18T17:18:52Z</time>
      </trkpt>
      <trkpt lat="44.82213" lon="4.79997">
        <ele>97</ele>
        <time>2019-04-18T17:19:52Z</time>
      </trkpt>
      <trkpt lat="44.82231" lon="4.79983">
        <ele>97</ele>
        <time>2019-04-18T17:20:52Z</time>
      </trkpt>
      <trkpt lat="44.82263" lon="4.79963">
        <ele>98</ele>
        <time>2019-04-18T17:21:52Z</time>
      </trkpt>
      <trkpt lat="44.82288" lon="4.79956">
        <ele>97</ele>
        <time>2019-04-18T17:22:52Z</time>
      </trkpt>
      <trkpt lat="44.82299" lon="4.79943">
        <ele>97</ele>
        <time>2019-04-18T17:23:52Z</time>
      </trkpt>
      <trkpt lat="44.82322" lon="4.79922">
        <ele>97</ele>
        <time>2019-04-18T17:24:52Z</time>
      </trkpt>
      <trkpt lat="44.82347" lon="4.79885">
        <ele>96</ele>
        <time>2019-04-18T17:25:52Z</time>
      </trkpt>
      <trkpt lat="44.82363" lon="4.7985">
        <ele>96</ele>
        <time>2019-04-18T17:26:52Z</time>
      </trkpt>
      <trkpt lat="44.82372" lon="4.79822">
        <ele>97</ele>
        <time>2019-04-18T17:27:52Z</time>
      </trkpt>
      <trkpt lat="44.82385" lon="4.79807">
        <ele>97</ele>
        <time>2019-04-18T17:28:52Z</time>
      </trkpt>
      <trkpt lat="44.82387" lon="4.7981">
        <ele>97</ele>
        <time>2019-04-18T17:29:52Z</time>
      </trkpt>
      <trkpt lat="44.82479" lon="4.79992">
        <ele>96</ele>
        <time>2019-04-18T17:30:52Z</time>
      </trkpt>
      <trkpt lat="44.82478" lon="4.79996">
        <ele>96</ele>
        <time>2019-04-18T17:31:52Z</time>
      </trkpt>
      <trkpt lat="44.82464" lon="4.8">
        <ele>96</ele>
        <time>2019-04-18T17:32:52Z</time>
      </trkpt>
      <trkpt lat="44.82372" lon="4.80071">
        <ele>97</ele>
        <time>2019-04-18T17:33:52Z</time>
      </trkpt>
      <trkpt lat="44.82361" lon="4.80077">
        <ele>97</ele>
        <time>2019-04-18T17:34:52Z</time>
      </trkpt>
      <trkpt lat="44.82317" lon="4.80092">
        <ele>96</ele>
        <time>2019-04-18T17:35:52Z</time>
      </trkpt>
      <trkpt lat="44.82302" lon="4.80106">
        <ele>97</ele>
        <time>2019-04-18T17:36:52Z</time>
      </trkpt>
      <trkpt lat="44.8223" lon="4.80156">
        <ele>97</ele>
        <time>2019-04-18T17:37:52Z</time>
      </trkpt>
      <trkpt lat="44.82232" lon="4.8016">
        <ele>97</ele>
        <time>2019-04-18T17:38:52Z</time>
      </trkpt>
      <trkpt lat="44.82204" lon="4.8018">
        <ele>96</ele>
        <time>2019-04-18T17:39:52Z</time>
      </trkpt>
      <trkpt lat="44.82154" lon="4.80209">
        <ele>95</ele>
        <time>2019-04-18T17:40:52Z</time>
      </trkpt>
      <trkpt lat="44.82132" lon="4.80219">
        <ele>94</ele>
        <time>2019-04-18T17:41:52Z</time>
      </trkpt>
      <trkpt lat="44.82107" lon="4.80225">
        <ele>93</ele>
        <time>2019-04-18T17:42:52Z</time>
      </trkpt>
      <trkpt lat="44.82079" lon="4.80228">
        <ele>93</ele>
        <time>2019-04-18T17:43:52Z</time>
      </trkpt>
      <trkpt lat="44.81829" lon="4.80251">
        <ele>92</ele>
        <time>2019-04-18T17:44:52Z</time>
      </trkpt>
      <trkpt lat="44.81804" lon="4.80256">
        <ele>92</ele>
        <time>2019-04-18T17:45:52Z</time>
      </trkpt>
      <trkpt lat="44.81721" lon="4.8028">
        <ele>93</ele>
        <time>2019-04-18T17:46:52Z</time>
      </trkpt>
      <trkpt lat="44.81629" lon="4.80293">
        <ele>95</ele>
        <time>2019-04-18T17:47:52Z</time>
      </trkpt>
      <trkpt lat="44.81517" lon="4.80297">
        <ele>95</ele>
        <time>2019-04-18T17:48:52Z</time>
      </trkpt>
      <trkpt lat="44.8138" lon="4.80284">
        <ele>93</ele>
        <time>2019-04-18T17:49:52Z</time>
      </trkpt>
      <trkpt lat="44.81216" lon="4.80267">
        <ele>96</ele>
        <time>2019-04-18T17:50:52Z</time>
      </trkpt>
      <trkpt lat="44.81211" lon="4.80271">
        <ele>96</ele>
        <time>2019-04-18T17:51:52Z</time>
      </trkpt>
      <trkpt lat="44.81209" lon="4.80277">
        <ele>96</ele>
        <time>2019-04-18T17:52:52Z</time>
      </trkpt>
      <trkpt lat="44.81211" lon="4.80287">
        <ele>97</ele>
        <time>2019-04-18T17:53:52Z</time>
      </trkpt>
      <trkpt lat="44.81215" lon="4.80297">
        <ele>97</ele>
        <time>2019-04-18T17:54:52Z</time>
      </trkpt>
      <trkpt lat="44.8128" lon="4.80374">
        <ele>97</ele>
        <time>2019-04-18T17:55:52Z</time>
      </trkpt>
      <trkpt lat="44.81391" lon="4.80499">
        <ele>96</ele>
        <time>2019-04-18T17:56:52Z</time>
      </trkpt>
      <trkpt lat="44.8144" lon="4.80537">
        <ele>97</ele>
        <time>2019-04-18T17:57:52Z</time>
      </trkpt>
      <trkpt lat="44.81462" lon="4.80549">
        <ele>97</ele>
        <time>2019-04-18T17:58:52Z</time>
      </trkpt>
      <trkpt lat="44.81491" lon="4.80559">
        <ele>98</ele>
        <time>2019-04-18T17:59:52Z</time>
      </trkpt>
      <trkpt lat="44.81524" lon="4.80565">
        <ele>98</ele>
        <time>2019-04-18T18:00:52Z</time>
      </trkpt>
      <trkpt lat="44.81589" lon="4.80581">
        <ele>99</ele>
        <time>2019-04-18T18:01:52Z</time>
      </trkpt>
      <trkpt lat="44.81662" lon="4.80617">
        <ele>97</ele>
        <time>2019-04-18T18:02:52Z</time>
      </trkpt>
      <trkpt lat="44.81696" lon="4.80619">
        <ele>98</ele>
        <time>2019-04-18T18:03:52Z</time>
      </trkpt>
      <trkpt lat="44.81879" lon="4.80644">
        <ele>98</ele>
        <time>2019-04-18T18:04:52Z</time>
      </trkpt>
      <trkpt lat="44.81904" lon="4.80652">
        <ele>98</ele>
        <time>2019-04-18T18:05:52Z</time>
      </trkpt>
      <trkpt lat="44.81942" lon="4.80671">
        <ele>98</ele>
        <time>2019-04-18T18:06:52Z</time>
      </trkpt>
      <trkpt lat="44.82049" lon="4.80737">
        <ele>98</ele>
        <time>2019-04-18T18:07:52Z</time>
      </trkpt>
      <trkpt lat="44.82124" lon="4.80747">
        <ele>97</ele>
        <time>2019-04-18T18:08:52Z</time>
      </trkpt>
      <trkpt lat="44.82183" lon="4.80762">
        <ele>97</ele>
        <time>2019-04-18T18:09:52Z</time>
      </trkpt>
      <trkpt lat="44.8233" lon="4.80817">
        <ele>96</ele>
        <time>2019-04-18T18:10:52Z</time>
      </trkpt>
      <trkpt lat="44.82339" lon="4.80823">
        <ele>96</ele>
        <time>2019-04-18T18:11:52Z</time>
      </trkpt>
      <trkpt lat="44.82346" lon="4.80831">
        <ele>96</ele>
        <time>2019-04-18T18:12:52Z</time>
      </trkpt>
      <trkpt lat="44.82354" lon="4.80843">
        <ele>96</ele>
        <time>2019-04-18T18:13:52Z</time>
      </trkpt>
      <trkpt lat="44.8237" lon="4.80873">
        <ele>95</ele>
        <time>2019-04-18T18:14:52Z</time>
      </trkpt>
      <trkpt lat="44.82378" lon="4.80881">
        <ele>96</ele>
        <time>2019-04-18T18:15:52Z</time>
      </trkpt>
      <trkpt lat="44.82393" lon="4.80888">
        <ele>96</ele>
        <time>2019-04-18T18:16:52Z</time>
      </trkpt>
      <trkpt lat="44.82411" lon="4.80886">
        <ele>96</ele>
        <time>2019-04-18T18:17:52Z</time>
      </trkpt>
      <trkpt lat="44.82416" lon="4.80881">
        <ele>97</ele>
        <time>2019-04-18T18:18:52Z</time>
      </trkpt>
      <trkpt lat="44.8242" lon="4.80895">
        <ele>97</ele>
        <time>2019-04-18T18:19:52Z</time>
      </trkpt>
      <trkpt lat="44.82427" lon="4.8091">
        <ele>97</ele>
        <time>2019-04-18T18:20:52Z</time>
      </trkpt>
      <trkpt lat="44.82459" lon="4.80942">
        <ele>98</ele>
        <time>2019-04-18T18:21:52Z</time>
      </trkpt>
      <trkpt lat="44.82489" lon="4.80978">
        <ele>98</ele>
        <time>2019-04-18T18:22:52Z</time>
      </trkpt>
      <trkpt lat="44.82503" lon="4.81">
        <ele>97</ele>
        <time>2019-04-18T18:23:52Z</time>
      </trkpt>
      <trkpt lat="44.8258" lon="4.81024">
        <ele>97</ele>
        <time>2019-04-18T18:24:52Z</time>
      </trkpt>
      <trkpt lat="44.82615" lon="4.80989">
        <ele>98</ele>
        <time>2019-04-18T18:25:52Z</time>
      </trkpt>
      <trkpt lat="44.82626" lon="4.80981">
        <ele>98</ele>
        <time>2019-04-18T18:26:52Z</time>
      </trkpt>
      <trkpt lat="44.82651" lon="4.80977">
        <ele>99</ele>
        <time>2019-04-18T18:27:52Z</time>
      </trkpt>
      <trkpt lat="44.82663" lon="4.80981">
        <ele>100</ele>
        <time>2019-04-18T18:28:52Z</time>
      </trkpt>
      <trkpt lat="44.82861" lon="4.81068">
        <ele>101</ele>
        <time>2019-04-18T18:29:52Z</time>
      </trkpt>
      <trkpt lat="44.8292" lon="4.81098">
        <ele>99</ele>
        <time>2019-04-18T18:30:52Z</time>
      </trkpt>
      <trkpt lat="44.82991" lon="4.81145">
        <ele>99</ele>
        <time>2019-04-18T18:31:52Z</time>
      </trkpt>
      <trkpt lat="44.83027" lon="4.81174">
        <ele>98</ele>
        <time>2019-04-18T18:32:52Z</time>
      </trkpt>
      <trkpt lat="44.83096" lon="4.81239">
        <ele>97</ele>
        <time>2019-04-18T18:33:52Z</time>
      </trkpt>
      <trkpt lat="44.83231" lon="4.81376">
        <ele>96</ele>
        <time>2019-04-18T18:34:52Z</time>
      </trkpt>
      <trkpt lat="44.83329" lon="4.81457">
        <ele>99</ele>
        <time>2019-04-18T18:35:52Z</time>
      </trkpt>
      <trkpt lat="44.83408" lon="4.8151">
        <ele>98</ele>
        <time>2019-04-18T18:36:52Z</time>
      </trkpt>
      <trkpt lat="44.8349" lon="4.81549">
        <ele>97</ele>
        <time>2019-04-18T18:37:52Z</time>
      </trkpt>
      <trkpt lat="44.83611" lon="4.81602">
        <ele>97</ele>
        <time>2019-04-18T18:38:52Z</time>
      </trkpt>
      <trkpt lat="44.83736" lon="4.8165">
        <ele>100</ele>
        <time>2019-04-18T18:39:52Z</time>
      </trkpt>
      <trkpt lat="44.83773" lon="4.81666">
        <ele>102</ele>
        <time>2019-04-18T18:40:52Z</time>
      </trkpt>
      <trkpt lat="44.83857" lon="4.81712">
        <ele>103</ele>
        <time>2019-04-18T18:41:52Z</time>
      </trkpt>
      <trkpt lat="44.83899" lon="4.81737">
        <ele>102</ele>
        <time>2019-04-18T18:42:52Z</time>
      </trkpt>
      <trkpt lat="44.83929" lon="4.81759">
        <ele>102</ele>
        <time>2019-04-18T18:43:52Z</time>
      </trkpt>
      <trkpt lat="44.84006" lon="4.81818">
        <ele>101</ele>
        <time>2019-04-18T18:44:52Z</time>
      </trkpt>
      <trkpt lat="44.84073" lon="4.81851">
        <ele>106</ele>
        <time>2019-04-18T18:45:52Z</time>
      </trkpt>
      <trkpt lat="44.84088" lon="4.8186">
        <ele>106</ele>
        <time>2019-04-18T18:46:52Z</time>
      </trkpt>
      <trkpt lat="44.84133" lon="4.81895">
        <ele>105</ele>
        <time>2019-04-18T18:47:52Z</time>
      </trkpt>
      <trkpt lat="44.84222" lon="4.81957">
        <ele>104</ele>
        <time>2019-04-18T18:48:52Z</time>
      </trkpt>
      <trkpt lat="44.84255" lon="4.81975">
        <ele>104</ele>
        <time>2019-04-18T18:49:52Z</time>
      </trkpt>
      <trkpt lat="44.84296" lon="4.82006">
        <ele>104</ele>
        <time>2019-04-18T18:50:52Z</time>
      </trkpt>
      <trkpt lat="44.84336" lon="4.82045">
        <ele>105</ele>
        <time>2019-04-18T18:51:52Z</time>
      </trkpt>
      <trkpt lat="44.8437" lon="4.82072">
        <ele>105</ele>
        <time>2019-04-18T18:52:52Z</time>
      </trkpt>
      <trkpt lat="44.84443" lon="4.82124">
        <ele>105</ele>
        <time>2019-04-18T18:53:52Z</time>
      </trkpt>
      <trkpt lat="44.8445" lon="4.8214">
        <ele>106</ele>
        <time>2019-04-18T18:54:52Z</time>
      </trkpt>
      <trkpt lat="44.8445" lon="4.82149">
        <ele>105</ele>
        <time>2019-04-18T18:55:52Z</time>
      </trkpt>
      <trkpt lat="44.84448" lon="4.82159">
        <ele>105</ele>
        <time>2019-04-18T18:56:52Z</time>
      </trkpt>
      <trkpt lat="44.84444" lon="4.82168">
        <ele>105</ele>
        <time>2019-04-18T18:57:52Z</time>
      </trkpt>
      <trkpt lat="44.84427" lon="4.82187">
        <ele>104</ele>
        <time>2019-04-18T18:58:52Z</time>
      </trkpt>
      <trkpt lat="44.84415" lon="4.82205">
        <ele>104</ele>
        <time>2019-04-18T18:59:52Z</time>
      </trkpt>
      <trkpt lat="44.84413" lon="4.82216">
        <ele>103</ele>
        <time>2019-04-18T19:00:52Z</time>
      </trkpt>
      <trkpt lat="44.84415" lon="4.82228">
        <ele>103</ele>
        <time>2019-04-18T19:01:52Z</time>
      </trkpt>
      <trkpt lat="44.84421" lon="4.82237">
        <ele>102</ele>
        <time>2019-04-18T19:02:52Z</time>
      </trkpt>
      <trkpt lat="44.84438" lon="4.82249">
        <ele>102</ele>
        <time>2019-04-18T19:03:52Z</time>
      </trkpt>
      <trkpt lat="44.84446" lon="4.82259">
        <ele>102</ele>
        <time>2019-04-18T19:04:52Z</time>
      </trkpt>
      <trkpt lat="44.84482" lon="4.82319">
        <ele>99</ele>
        <time>2019-04-18T19:05:52Z</time>
      </trkpt>
      <trkpt lat="44.84542" lon="4.82402">
        <ele>98</ele>
        <time>2019-04-18T19:06:52Z</time>
      </trkpt>
      <trkpt lat="44.84592" lon="4.82477">
        <ele>98</ele>
        <time>2019-04-18T19:07:52Z</time>
      </trkpt>
      <trkpt lat="44.84818" lon="4.82841">
        <ele>99</ele>
        <time>2019-04-18T19:08:52Z</time>
      </trkpt>
      <trkpt lat="44.84855" lon="4.82904">
        <ele>100</ele>
        <time>2019-04-18T19:09:52Z</time>
      </trkpt>
      <trkpt lat="44.84927" lon="4.83019">
        <ele>100</ele>
        <time>2019-04-18T19:10:52Z</time>
      </trkpt>
      <trkpt lat="44.84966" lon="4.83081">
        <ele>101</ele>
        <time>2019-04-18T19:11:52Z</time>
      </trkpt>
      <trkpt lat="44.85221" lon="4.83493">
        <ele>103</ele>
        <time>2019-04-18T19:12:52Z</time>
      </trkpt>
      <trkpt lat="44.85281" lon="4.83584">
        <ele>103</ele>
        <time>2019-04-18T19:13:52Z</time>
      </trkpt>
      <trkpt lat="44.8529" lon="4.83595">
        <ele>103</ele>
        <time>2019-04-18T19:14:52Z</time>
      </trkpt>
      <trkpt lat="44.8531" lon="4.83609">
        <ele>103</ele>
        <time>2019-04-18T19:15:52Z</time>
      </trkpt>
      <trkpt lat="44.85322" lon="4.83612">
        <ele>103</ele>
        <time>2019-04-18T19:16:52Z</time>
      </trkpt>
      <trkpt lat="44.85327" lon="4.8362">
        <ele>103</ele>
        <time>2019-04-18T19:17:52Z</time>
      </trkpt>
      <trkpt lat="44.85346" lon="4.83627">
        <ele>103</ele>
        <time>2019-04-18T19:18:52Z</time>
      </trkpt>
      <trkpt lat="44.85371" lon="4.8363">
        <ele>103</ele>
        <time>2019-04-18T19:19:52Z</time>
      </trkpt>
      <trkpt lat="44.85477" lon="4.83649">
        <ele>101</ele>
        <time>2019-04-18T19:20:52Z</time>
      </trkpt>
      <trkpt lat="44.85478" lon="4.83661">
        <ele>100</ele>
        <time>2019-04-18T19:21:52Z</time>
      </trkpt>
      <trkpt lat="44.85458" lon="4.83806">
        <ele>105</ele>
        <time>2019-04-18T19:22:52Z</time>
      </trkpt>
      <trkpt lat="44.8546" lon="4.83808">
        <ele>105</ele>
        <time>2019-04-18T19:23:52Z</time>
      </trkpt>
      <trkpt lat="44.85471" lon="4.8381">
        <ele>105</ele>
        <time>2019-04-18T19:24:52Z</time>
      </trkpt>
      <trkpt lat="44.85475" lon="4.83819">
        <ele>105</ele>
        <time>2019-04-18T19:25:52Z</time>
      </trkpt>
      <trkpt lat="44.85479" lon="4.8382">
        <ele>105</ele>
        <time>2019-04-18T19:26:52Z</time>
      </trkpt>
      <trkpt lat="44.85483" lon="4.83818">
        <ele>105</ele>
        <time>2019-04-18T19:27:52Z</time>
      </trkpt>
      <trkpt lat="44.85486" lon="4.8381">
        <ele>105</ele>
        <time>2019-04-18T19:28:52Z</time>
      </trkpt>
      <trkpt lat="44.85493" lon="4.83802">
        <ele>105</ele>
        <time>2019-04-18T19:29:52Z</time>
      </trkpt>
      <trkpt lat="44.85504" lon="4.83796">
        <ele>105</ele>
        <time>2019-04-18T19:30:52Z</time>
      </trkpt>
      <trkpt lat="44.85544" lon="4.83788">
        <ele>105</ele>
        <time>2019-04-18T19:31:52Z</time>
      </trkpt>
      <trkpt lat="44.85547" lon="4.83793">
        <ele>105</ele>
        <time>2019-04-18T19:32:52Z</time>
      </trkpt>
      <trkpt lat="44.85596" lon="4.83787">
        <ele>106</ele>
        <time>2019-04-18T19:33:52Z</time>
      </trkpt>
      <trkpt lat="44.85619" lon="4.83779">
        <ele>106</ele>
        <time>2019-04-18T19:34:52Z</time>
      </trkpt>
      <trkpt lat="44.85722" lon="4.83704">
        <ele>106</ele>
        <time>2019-04-18T19:35:52Z</time>
      </trkpt>
      <trkpt lat="44.85793" lon="4.8365">
        <ele>106</ele>
        <time>2019-04-18T19:36:52Z</time>
      </trkpt>
      <trkpt lat="44.85877" lon="4.83594">
        <ele>107</ele>
        <time>2019-04-18T19:37:52Z</time>
      </trkpt>
      <trkpt lat="44.85927" lon="4.83557">
        <ele>108</ele>
        <time>2019-04-18T19:38:52Z</time>
      </trkpt>
      <trkpt lat="44.85943" lon="4.83547">
        <ele>109</ele>
        <time>2019-04-18T19:39:52Z</time>
      </trkpt>
      <trkpt lat="44.85957" lon="4.83577">
        <ele>109</ele>
        <time>2019-04-18T19:40:52Z</time>
      </trkpt>
      <trkpt lat="44.85967" lon="4.83592">
        <ele>110</ele>
        <time>2019-04-18T19:41:52Z</time>
      </trkpt>
      <trkpt lat="44.86003" lon="4.83623">
        <ele>111</ele>
        <time>2019-04-18T19:42:52Z</time>
      </trkpt>
      <trkpt lat="44.86011" lon="4.83639">
        <ele>110</ele>
        <time>2019-04-18T19:43:52Z</time>
      </trkpt>
      <trkpt lat="44.86069" lon="4.83685">
        <ele>110</ele>
        <time>2019-04-18T19:44:52Z</time>
      </trkpt>
      <trkpt lat="44.86076" lon="4.83699">
        <ele>109</ele>
        <time>2019-04-18T19:45:52Z</time>
      </trkpt>
      <trkpt lat="44.86084" lon="4.83708">
        <ele>109</ele>
        <time>2019-04-18T19:46:52Z</time>
      </trkpt>
      <trkpt lat="44.86156" lon="4.83774">
        <ele>109</ele>
        <time>2019-04-18T19:47:52Z</time>
      </trkpt>
      <trkpt lat="44.86168" lon="4.83757">
        <ele>109</ele>
        <time>2019-04-18T19:48:52Z</time>
      </trkpt>
      <trkpt lat="44.86181" lon="4.83746">
        <ele>109</ele>
        <time>2019-04-18T19:49:52Z</time>
      </trkpt>
      <trkpt lat="44.86186" lon="4.83739">
        <ele>109</ele>
        <time>2019-04-18T19:50:52Z</time>
      </trkpt>
      <trkpt lat="44.86213" lon="4.83764">
        <ele>108</ele>
        <time>2019-04-18T19:51:52Z</time>
      </trkpt>
      <trkpt lat="44.86315" lon="4.83848">
        <ele>108</ele>
        <time>2019-04-18T19:52:52Z</time>
      </trkpt>
      <trkpt lat="44.86335" lon="4.83858">
        <ele>108</ele>
        <time>2019-04-18T19:53:52Z</time>
      </trkpt>
      <trkpt lat="44.86353" lon="4.83872">
        <ele>108</ele>
        <time>2019-04-18T19:54:52Z</time>
      </trkpt>
      <trkpt lat="44.86365" lon="4.83886">
        <ele>108</ele>
        <time>2019-04-18T19:55:52Z</time>
      </trkpt>
      <trkpt lat="44.86574" lon="4.84055">
        <ele>106</ele>
        <time>2019-04-18T19:56:52Z</time>
      </trkpt>
      <trkpt lat="44.86581" lon="4.84063">
        <ele>106</ele>
        <time>2019-04-18T19:57:52Z</time>
      </trkpt>
      <trkpt lat="44.86588" lon="4.84064">
        <ele>106</ele>
        <time>2019-04-18T19:58:52Z</time>
      </trkpt>
      <trkpt lat="44.866" lon="4.8407">
        <ele>106</ele>
        <time>2019-04-18T19:59:52Z</time>
      </trkpt>
      <trkpt lat="44.86663" lon="4.84116">
        <ele>104</ele>
        <time>2019-04-18T20:00:52Z</time>
      </trkpt>
      <trkpt lat="44.86964" lon="4.84354">
        <ele>105</ele>
        <time>2019-04-18T20:01:52Z</time>
      </trkpt>
      <trkpt lat="44.87054" lon="4.84427">
        <ele>107</ele>
        <time>2019-04-18T20:02:52Z</time>
      </trkpt>
      <trkpt lat="44.87084" lon="4.84456">
        <ele>107</ele>
        <time>2019-04-18T20:03:52Z</time>
      </trkpt>
      <trkpt lat="44.87019" lon="4.84575">
        <ele>106</ele>
        <time>2019-04-18T20:04:52Z</time>
      </trkpt>
      <trkpt lat="44.86883" lon="4.84859">
        <ele>106</ele>
        <time>2019-04-18T20:05:52Z</time>
      </trkpt>
      <trkpt lat="44.86888" lon="4.84862">
        <ele>106</ele>
        <time>2019-04-18T20:06:52Z</time>
      </trkpt>
      <trkpt lat="44.86915" lon="4.84862">
        <ele>106</ele>
        <time>2019-04-18T20:07:52Z</time>
      </trkpt>
      <trkpt lat="44.8693" lon="4.84873">
        <ele>106</ele>
        <time>2019-04-18T20:08:52Z</time>
      </trkpt>
      <trkpt lat="44.86942" lon="4.8488">
        <ele>106</ele>
        <time>2019-04-18T20:09:52Z</time>
      </trkpt>
      <trkpt lat="44.87041" lon="4.84902">
        <ele>105</ele>
        <time>2019-04-18T20:10:52Z</time>
      </trkpt>
      <trkpt lat="44.87147" lon="4.84922">
        <ele>104</ele>
        <time>2019-04-18T20:11:52Z</time>
      </trkpt>
      <trkpt lat="44.87219" lon="4.84945">
        <ele>105</ele>
        <time>2019-04-18T20:12:52Z</time>
      </trkpt>
      <trkpt lat="44.87281" lon="4.84961">
        <ele>105</ele>
        <time>2019-04-18T20:13:52Z</time>
      </trkpt>
      <trkpt lat="44.87301" lon="4.84968">
        <ele>104</ele>
        <time>2019-04-18T20:14:52Z</time>
      </trkpt>
      <trkpt lat="44.87336" lon="4.85001">
        <ele>104</ele>
        <time>2019-04-18T20:15:52Z</time>
      </trkpt>
      <trkpt lat="44.87353" lon="4.85011">
        <ele>103</ele>
        <time>2019-04-18T20:16:52Z</time>
      </trkpt>
      <trkpt lat="44.875" lon="4.85054">
        <ele>103</ele>
        <time>2019-04-18T20:17:52Z</time>
      </trkpt>
      <trkpt lat="44.87521" lon="4.85059">
        <ele>103</ele>
        <time>2019-04-18T20:18:52Z</time>
      </trkpt>
      <trkpt lat="44.87606" lon="4.85059">
        <ele>104</ele>
        <time>2019-04-18T20:19:52Z</time>
      </trkpt>
      <trkpt lat="44.87639" lon="4.85054">
        <ele>104</ele>
        <time>2019-04-18T20:20:52Z</time>
      </trkpt>
      <trkpt lat="44.87667" lon="4.85043">
        <ele>104</ele>
        <time>2019-04-18T20:21:52Z</time>
      </trkpt>
      <trkpt lat="44.87757" lon="4.85002">
        <ele>104</ele>
        <time>2019-04-18T20:22:52Z</time>
      </trkpt>
      <trkpt lat="44.87783" lon="4.84998">
        <ele>104</ele>
        <time>2019-04-18T20:23:52Z</time>
      </trkpt>
      <trkpt lat="44.87806" lon="4.85">
        <ele>105</ele>
        <time>2019-04-18T20:24:52Z</time>
      </trkpt>
      <trkpt lat="44.87836" lon="4.85007">
        <ele>105</ele>
        <time>2019-04-18T20:25:52Z</time>
      </trkpt>
      <trkpt lat="44.87873" lon="4.85022">
        <ele>106</ele>
        <time>2019-04-18T20:26:52Z</time>
      </trkpt>
      <trkpt lat="44.88014" lon="4.85055">
        <ele>106</ele>
        <time>2019-04-18T20:27:52Z</time>
      </trkpt>
      <trkpt lat="44.8807" lon="4.85066">
        <ele>106</ele>
        <time>2019-04-18T20:28:52Z</time>
      </trkpt>
      <trkpt lat="44.88065" lon="4.85071">
        <ele>106</ele>
        <time>2019-04-18T20:29:52Z</time>
      </trkpt>
      <trkpt lat="44.88026" lon="4.8507">
        <ele>107</ele>
        <time>2019-04-18T20:30:52Z</time>
      </trkpt>
      <trkpt lat="44.88012" lon="4.85075">
        <ele>107</ele>
        <time>2019-04-18T20:31:52Z</time>
      </trkpt>
      <trkpt lat="44.87972" lon="4.85108">
        <ele>108</ele>
        <time>2019-04-18T20:32:52Z</time>
      </trkpt>
      <trkpt lat="44.87938" lon="4.85143">
        <ele>108</ele>
        <time>2019-04-18T20:33:52Z</time>
      </trkpt>
      <trkpt lat="44.87937" lon="4.85193">
        <ele>108</ele>
        <time>2019-04-18T20:34:52Z</time>
      </trkpt>
      <trkpt lat="44.87943" lon="4.85215">
        <ele>107</ele>
        <time>2019-04-18T20:35:52Z</time>
      </trkpt>
      <trkpt lat="44.87952" lon="4.85231">
        <ele>107</ele>
        <time>2019-04-18T20:36:52Z</time>
      </trkpt>
      <trkpt lat="44.87963" lon="4.85238">
        <ele>106</ele>
        <time>2019-04-18T20:37:52Z</time>
      </trkpt>
      <trkpt lat="44.87977" lon="4.85239">
        <ele>106</ele>
        <time>2019-04-18T20:38:52Z</time>
      </trkpt>
      <trkpt lat="44.88007" lon="4.85236">
        <ele>106</ele>
        <time>2019-04-18T20:39:52Z</time>
      </trkpt>
      <trkpt lat="44.88021" lon="4.85254">
        <ele>105</ele>
        <time>2019-04-18T20:40:52Z</time>
      </trkpt>
      <trkpt lat="44.88094" lon="4.85397">
        <ele>102</ele>
        <time>2019-04-18T20:41:52Z</time>
      </trkpt>
      <trkpt lat="44.8818" lon="4.85419">
        <ele>102</ele>
        <time>2019-04-18T20:42:52Z</time>
      </trkpt>
      <trkpt lat="44.88307" lon="4.85491">
        <ele>103</ele>
        <time>2019-04-18T20:43:52Z</time>
      </trkpt>
      <trkpt lat="44.88331" lon="4.85495">
        <ele>103</ele>
        <time>2019-04-18T20:44:52Z</time>
      </trkpt>
      <trkpt lat="44.88441" lon="4.85486">
        <ele>103</ele>
        <time>2019-04-18T20:45:52Z</time>
      </trkpt>
      <trkpt lat="44.88501" lon="4.85467">
        <ele>105</ele>
        <time>2019-04-18T20:46:52Z</time>
      </trkpt>
      <trkpt lat="44.88542" lon="4.85467">
        <ele>104</ele>
        <time>2019-04-18T20:47:52Z</time>
      </trkpt>
      <trkpt lat="44.88709" lon="4.85348">
        <ele>105</ele>
        <time>2019-04-18T20:48:52Z</time>
      </trkpt>
      <trkpt lat="44.88801" lon="4.853">
        <ele>106</ele>
        <time>2019-04-18T20:49:52Z</time>
      </trkpt>
      <trkpt lat="44.88934" lon="4.85246">
        <ele>108</ele>
        <time>2019-04-18T20:50:52Z</time>
      </trkpt>
      <trkpt lat="44.88955" lon="4.85243">
        <ele>108</ele>
        <time>2019-04-18T20:51:52Z</time>
      </trkpt>
      <trkpt lat="44.88962" lon="4.85238">
        <ele>109</ele>
        <time>2019-04-18T20:52:52Z</time>
      </trkpt>
      <trkpt lat="44.88966" lon="4.85231">
        <ele>109</ele>
        <time>2019-04-18T20:53:52Z</time>
      </trkpt>
      <trkpt lat="44.88978" lon="4.85236">
        <ele>109</ele>
        <time>2019-04-18T20:54:52Z</time>
      </trkpt>
      <trkpt lat="44.89221" lon="4.85181">
        <ele>107</ele>
        <time>2019-04-18T20:55:52Z</time>
      </trkpt>
      <trkpt lat="44.89237" lon="4.85175">
        <ele>107</ele>
        <time>2019-04-18T20:56:52Z</time>
      </trkpt>
      <trkpt lat="44.89252" lon="4.85176">
        <ele>107</ele>
        <time>2019-04-18T20:57:52Z</time>
      </trkpt>
      <trkpt lat="44.89288" lon="4.85172">
        <ele>106</ele>
        <time>2019-04-18T20:58:52Z</time>
      </trkpt>
      <trkpt lat="44.89449" lon="4.85178">
        <ele>107</ele>
        <time>2019-04-18T20:59:52Z</time>
      </trkpt>
      <trkpt lat="44.89689" lon="4.85199">
        <ele>106</ele>
        <time>2019-04-18T21:00:52Z</time>
      </trkpt>
      <trkpt lat="44.89921" lon="4.85223">
        <ele>109</ele>
        <time>2019-04-18T21:01:52Z</time>
      </trkpt>
      <trkpt lat="44.90005" lon="4.85233">
        <ele>113</ele>
        <time>2019-04-18T21:02:52Z</time>
      </trkpt>
      <trkpt lat="44.90042" lon="4.85239">
        <ele>113</ele>
        <time>2019-04-18T21:03:52Z</time>
      </trkpt>
      <trkpt lat="44.90116" lon="4.85254">
        <ele>111</ele>
        <time>2019-04-18T21:04:52Z</time>
      </trkpt>
      <trkpt lat="44.9015" lon="4.85263">
        <ele>112</ele>
        <time>2019-04-18T21:05:52Z</time>
      </trkpt>
      <trkpt lat="44.90175" lon="4.85273">
        <ele>113</ele>
        <time>2019-04-18T21:06:52Z</time>
      </trkpt>
      <trkpt lat="44.90303" lon="4.85327">
        <ele>112</ele>
        <time>2019-04-18T21:07:52Z</time>
      </trkpt>
      <trkpt lat="44.90362" lon="4.85347">
        <ele>111</ele>
        <time>2019-04-18T21:08:52Z</time>
      </trkpt>
      <trkpt lat="44.90402" lon="4.85357">
        <ele>110</ele>
        <time>2019-04-18T21:09:52Z</time>
      </trkpt>
      <trkpt lat="44.90474" lon="4.8537">
        <ele>112</ele>
        <time>2019-04-18T21:10:52Z</time>
      </trkpt>
      <trkpt lat="44.90575" lon="4.85375">
        <ele>112</ele>
        <time>2019-04-18T21:11:52Z</time>
      </trkpt>
      <trkpt lat="44.90663" lon="4.85375">
        <ele>112</ele>
        <time>2019-04-18T21:12:52Z</time>
      </trkpt>
      <trkpt lat="44.90722" lon="4.85379">
        <ele>113</ele>
        <time>2019-04-18T21:13:52Z</time>
      </trkpt>
      <trkpt lat="44.9079" lon="4.85388">
        <ele>113</ele>
        <time>2019-04-18T21:14:52Z</time>
      </trkpt>
      <trkpt lat="44.90864" lon="4.854">
        <ele>111</ele>
        <time>2019-04-18T21:15:52Z</time>
      </trkpt>
      <trkpt lat="44.90933" lon="4.85423">
        <ele>110</ele>
        <time>2019-04-18T21:16:52Z</time>
      </trkpt>
      <trkpt lat="44.91036" lon="4.85491">
        <ele>107</ele>
        <time>2019-04-18T21:17:52Z</time>
      </trkpt>
      <trkpt lat="44.91026" lon="4.85531">
        <ele>107</ele>
        <time>2019-04-18T21:18:52Z</time>
      </trkpt>
      <trkpt lat="44.91008" lon="4.8558">
        <ele>109</ele>
        <time>2019-04-18T21:19:52Z</time>
      </trkpt>
      <trkpt lat="44.91" lon="4.85616">
        <ele>109</ele>
        <time>2019-04-18T21:20:52Z</time>
      </trkpt>
      <trkpt lat="44.90994" lon="4.85692">
        <ele>109</ele>
        <time>2019-04-18T21:21:52Z</time>
      </trkpt>
      <trkpt lat="44.90977" lon="4.86022">
        <ele>108</ele>
        <time>2019-04-18T21:22:52Z</time>
      </trkpt>
      <trkpt lat="44.9097" lon="4.86194">
        <ele>108</ele>
        <time>2019-04-18T21:23:52Z</time>
      </trkpt>
      <trkpt lat="44.90979" lon="4.86253">
        <ele>108</ele>
        <time>2019-04-18T21:24:52Z</time>
      </trkpt>
      <trkpt lat="44.91015" lon="4.86347">
        <ele>105</ele>
        <time>2019-04-18T21:25:52Z</time>
      </trkpt>
      <trkpt lat="44.91062" lon="4.86451">
        <ele>105</ele>
        <time>2019-04-18T21:26:52Z</time>
      </trkpt>
      <trkpt lat="44.91076" lon="4.8645">
        <ele>105</ele>
        <time>2019-04-18T21:27:52Z</time>
      </trkpt>
      <trkpt lat="44.91111" lon="4.86438">
        <ele>106</ele>
        <time>2019-04-18T21:28:52Z</time>
      </trkpt>
      <trkpt lat="44.91126" lon="4.86418">
        <ele>107</ele>
        <time>2019-04-18T21:29:52Z</time>
      </trkpt>
      <trkpt lat="44.91141" lon="4.86388">
        <ele>107</ele>
        <time>2019-04-18T21:30:52Z</time>
      </trkpt>
      <trkpt lat="44.91153" lon="4.86336">
        <ele>106</ele>
        <time>2019-04-18T21:31:52Z</time>
      </trkpt>
      <trkpt lat="44.91162" lon="4.8633">
        <ele>106</ele>
        <time>2019-04-18T21:32:52Z</time>
      </trkpt>
      <trkpt lat="44.9129" lon="4.86343">
        <ele>106</ele>
        <time>2019-04-18T21:33:52Z</time>
      </trkpt>
      <trkpt lat="44.9131" lon="4.86348">
        <ele>106</ele>
        <time>2019-04-18T21:34:52Z</time>
      </trkpt>
      <trkpt lat="44.91335" lon="4.86366">
        <ele>106</ele>
        <time>2019-04-18T21:35:52Z</time>
      </trkpt>
      <trkpt lat="44.91347" lon="4.86377">
        <ele>106</ele>
        <time>2019-04-18T21:36:52Z</time>
      </trkpt>
      <trkpt lat="44.91359" lon="4.86386">
        <ele>106</ele>
        <time>2019-04-18T21:37:52Z</time>
      </trkpt>
      <trkpt lat="44.91366" lon="4.86388">
        <ele>106</ele>
        <time>2019-04-18T21:38:52Z</time>
      </trkpt>
      <trkpt lat="44.91392" lon="4.86386">
        <ele>105</ele>
        <time>2019-04-18T21:39:52Z</time>
      </trkpt>
      <trkpt lat="44.91419" lon="4.86389">
        <ele>105</ele>
        <time>2019-04-18T21:40:52Z</time>
      </trkpt>
      <trkpt lat="44.91437" lon="4.86396">
        <ele>105</ele>
        <time>2019-04-18T21:41:52Z</time>
      </trkpt>
      <trkpt lat="44.9147" lon="4.86411">
        <ele>104</ele>
        <time>2019-04-18T21:42:52Z</time>
      </trkpt>
      <trkpt lat="44.91481" lon="4.86409">
        <ele>104</ele>
        <time>2019-04-18T21:43:52Z</time>
      </trkpt>
      <trkpt lat="44.91513" lon="4.86382">
        <ele>103</ele>
        <time>2019-04-18T21:44:52Z</time>
      </trkpt>
      <trkpt lat="44.91534" lon="4.86373">
        <ele>104</ele>
        <time>2019-04-18T21:45:52Z</time>
      </trkpt>
      <trkpt lat="44.91545" lon="4.86282">
        <ele>105</ele>
        <time>2019-04-18T21:46:52Z</time>
      </trkpt>
      <trkpt lat="44.91549" lon="4.86272">
        <ele>105</ele>
        <time>2019-04-18T21:47:52Z</time>
      </trkpt>
      <trkpt lat="44.91553" lon="4.86274">
        <ele>105</ele>
        <time>2019-04-18T21:48:52Z</time>
      </trkpt>
      <trkpt lat="44.91571" lon="4.86301">
        <ele>105</ele>
        <time>2019-04-18T21:49:52Z</time>
      </trkpt>
      <trkpt lat="44.91582" lon="4.86309">
        <ele>105</ele>
        <time>2019-04-18T21:50:52Z</time>
      </trkpt>
      <trkpt lat="44.916" lon="4.86314">
        <ele>105</ele>
        <time>2019-04-18T21:51:52Z</time>
      </trkpt>
      <trkpt lat="44.91628" lon="4.86318">
        <ele>107</ele>
        <time>2019-04-18T21:52:52Z</time>
      </trkpt>
      <trkpt lat="44.91669" lon="4.86314">
        <ele>109</ele>
        <time>2019-04-18T21:53:52Z</time>
      </trkpt>
      <trkpt lat="44.91672" lon="4.8632">
        <ele>109</ele>
        <time>2019-04-18T21:54:52Z</time>
      </trkpt>
      <trkpt lat="44.9162" lon="4.86327">
        <ele>106</ele>
        <time>2019-04-18T21:55:52Z</time>
      </trkpt>
      <trkpt lat="44.9158" lon="4.86324">
        <ele>104</ele>
        <time>2019-04-18T21:56:52Z</time>
      </trkpt>
      <trkpt lat="44.91547" lon="4.86318">
        <ele>104</ele>
        <time>2019-04-18T21:57:52Z</time>
      </trkpt>
      <trkpt lat="44.91305" lon="4.86255">
        <ele>105</ele>
        <time>2019-04-18T21:58:52Z</time>
      </trkpt>
      <trkpt lat="44.91253" lon="4.8625">
        <ele>105</ele>
        <time>2019-04-18T21:59:52Z</time>
      </trkpt>
      <trkpt lat="44.91193" lon="4.86256">
        <ele>106</ele>
        <time>2019-04-18T22:00:52Z</time>
      </trkpt>
      <trkpt lat="44.91154" lon="4.86267">
        <ele>107</ele>
        <time>2019-04-18T22:01:52Z</time>
      </trkpt>
      <trkpt lat="44.91116" lon="4.86284">
        <ele>107</ele>
        <time>2019-04-18T22:02:52Z</time>
      </trkpt>
      <trkpt lat="44.91083" lon="4.86304">
        <ele>106</ele>
        <time>2019-04-18T22:03:52Z</time>
      </trkpt>
      <trkpt lat="44.91043" lon="4.86337">
        <ele>105</ele>
        <time>2019-04-18T22:04:52Z</time>
      </trkpt>
      <trkpt lat="44.91018" lon="4.8636">
        <ele>105</ele>
        <time>2019-04-18T22:05:52Z</time>
      </trkpt>
      <trkpt lat="44.90997" lon="4.86384">
        <ele>104</ele>
        <time>2019-04-18T22:06:52Z</time>
      </trkpt>
      <trkpt lat="44.90959" lon="4.86436">
        <ele>105</ele>
        <time>2019-04-18T22:07:52Z</time>
      </trkpt>
      <trkpt lat="44.90642" lon="4.86939">
        <ele>108</ele>
        <time>2019-04-18T22:08:52Z</time>
      </trkpt>
      <trkpt lat="44.90505" lon="4.87155">
        <ele>106</ele>
        <time>2019-04-18T22:09:52Z</time>
      </trkpt>
      <trkpt lat="44.90503" lon="4.8715">
        <ele>106</ele>
        <time>2019-04-18T22:10:52Z</time>
      </trkpt>
      <trkpt lat="44.90503" lon="4.87144">
        <ele>106</ele>
        <time>2019-04-18T22:11:52Z</time>
      </trkpt>
      <trkpt lat="44.9051" lon="4.87129">
        <ele>106</ele>
        <time>2019-04-18T22:12:52Z</time>
      </trkpt>
      <trkpt lat="44.90563" lon="4.87045">
        <ele>105</ele>
        <time>2019-04-18T22:13:52Z</time>
      </trkpt>
      <trkpt lat="44.90576" lon="4.87019">
        <ele>106</ele>
        <time>2019-04-18T22:14:52Z</time>
      </trkpt>
      <trkpt lat="44.90633" lon="4.87096">
        <ele>107</ele>
        <time>2019-04-18T22:15:52Z</time>
      </trkpt>
      <trkpt lat="44.9064" lon="4.87107">
        <ele>107</ele>
        <time>2019-04-18T22:16:52Z</time>
      </trkpt>
      <trkpt lat="44.90667" lon="4.87055">
        <ele>107</ele>
        <time>2019-04-18T22:17:52Z</time>
      </trkpt>
      <trkpt lat="44.90689" lon="4.86993">
        <ele>108</ele>
        <time>2019-04-18T22:18:52Z</time>
      </trkpt>
      <trkpt lat="44.90725" lon="4.86938">
        <ele>107</ele>
        <time>2019-04-18T22:19:52Z</time>
      </trkpt>
      <trkpt lat="44.90823" lon="4.87031">
        <ele>107</ele>
        <time>2019-04-18T22:20:52Z</time>
      </trkpt>
      <trkpt lat="44.90896" lon="4.87095">
        <ele>108</ele>
        <time>2019-04-18T22:21:52Z</time>
      </trkpt>
      <trkpt lat="44.90972" lon="4.87154">
        <ele>107</ele>
        <time>2019-04-18T22:22:52Z</time>
      </trkpt>
      <trkpt lat="44.9119" lon="4.87315">
        <ele>108</ele>
        <time>2019-04-18T22:23:52Z</time>
      </trkpt>
      <trkpt lat="44.91267" lon="4.87365">
        <ele>107</ele>
        <time>2019-04-18T22:24:52Z</time>
      </trkpt>
      <trkpt lat="44.91363" lon="4.87432">
        <ele>106</ele>
        <time>2019-04-18T22:25:52Z</time>
      </trkpt>
      <trkpt lat="44.91431" lon="4.87485">
        <ele>106</ele>
        <time>2019-04-18T22:26:52Z</time>
      </trkpt>
      <trkpt lat="44.91455" lon="4.87507">
        <ele>107</ele>
        <time>2019-04-18T22:27:52Z</time>
      </trkpt>
      <trkpt lat="44.91474" lon="4.87522">
        <ele>106</ele>
        <time>2019-04-18T22:28:52Z</time>
      </trkpt>
      <trkpt lat="44.91562" lon="4.87583">
        <ele>106</ele>
        <time>2019-04-18T22:29:52Z</time>
      </trkpt>
      <trkpt lat="44.91637" lon="4.87395">
        <ele>109</ele>
        <time>2019-04-18T22:30:52Z</time>
      </trkpt>
      <trkpt lat="44.91648" lon="4.87378">
        <ele>109</ele>
        <time>2019-04-18T22:31:52Z</time>
      </trkpt>
      <trkpt lat="44.91678" lon="4.87361">
        <ele>110</ele>
        <time>2019-04-18T22:32:52Z</time>
      </trkpt>
      <trkpt lat="44.91714" lon="4.87332">
        <ele>109</ele>
        <time>2019-04-18T22:33:52Z</time>
      </trkpt>
      <trkpt lat="44.91755" lon="4.87325">
        <ele>109</ele>
        <time>2019-04-18T22:34:52Z</time>
      </trkpt>
      <trkpt lat="44.91808" lon="4.87339">
        <ele>109</ele>
        <time>2019-04-18T22:35:52Z</time>
      </trkpt>
      <trkpt lat="44.91865" lon="4.87367">
        <ele>108</ele>
        <time>2019-04-18T22:36:52Z</time>
      </trkpt>
      <trkpt lat="44.91945" lon="4.87398">
        <ele>107</ele>
        <time>2019-04-18T22:37:52Z</time>
      </trkpt>
      <trkpt lat="44.91993" lon="4.87429">
        <ele>106</ele>
        <time>2019-04-18T22:38:52Z</time>
      </trkpt>
      <trkpt lat="44.92022" lon="4.87444">
        <ele>106</ele>
        <time>2019-04-18T22:39:52Z</time>
      </trkpt>
      <trkpt lat="44.92058" lon="4.87467">
        <ele>106</ele>
        <time>2019-04-18T22:40:52Z</time>
      </trkpt>
      <trkpt lat="44.92143" lon="4.87534">
        <ele>106</ele>
        <time>2019-04-18T22:41:52Z</time>
      </trkpt>
      <trkpt lat="44.92256" lon="4.87637">
        <ele>107</ele>
        <time>2019-04-18T22:42:52Z</time>
      </trkpt>
      <trkpt lat="44.9232" lon="4.87676">
        <ele>107</ele>
        <time>2019-04-18T22:43:52Z</time>
      </trkpt>
      <trkpt lat="44.92445" lon="4.87796">
        <ele>107</ele>
        <time>2019-04-18T22:44:52Z</time>
      </trkpt>
      <trkpt lat="44.92518" lon="4.87881">
        <ele>109</ele>
        <time>2019-04-18T22:45:52Z</time>
      </trkpt>
      <trkpt lat="44.92557" lon="4.87909">
        <ele>108</ele>
        <time>2019-04-18T22:46:52Z</time>
      </trkpt>
      <trkpt lat="44.92623" lon="4.87971">
        <ele>107</ele>
        <time>2019-04-18T22:47:52Z</time>
      </trkpt>
      <trkpt lat="44.92713" lon="4.88048">
        <ele>107</ele>
        <time>2019-04-18T22:48:52Z</time>
      </trkpt>
      <trkpt lat="44.92911" lon="4.88213">
        <ele>108</ele>
        <time>2019-04-18T22:49:52Z</time>
      </trkpt>
      <trkpt lat="44.92956" lon="4.88248">
        <ele>108</ele>
        <time>2019-04-18T22:50:52Z</time>
      </trkpt>
      <trkpt lat="44.92963" lon="4.88259">
        <ele>107</ele>
        <time>2019-04-18T22:51:52Z</time>
      </trkpt>
      <trkpt lat="44.92942" lon="4.88298">
        <ele>108</ele>
        <time>2019-04-18T22:52:52Z</time>
      </trkpt>
      <trkpt lat="44.92915" lon="4.8828">
        <ele>108</ele>
        <time>2019-04-18T22:53:52Z</time>
      </trkpt>
      <trkpt lat="44.92912" lon="4.88281">
        <ele>108</ele>
        <time>2019-04-18T22:54:52Z</time>
      </trkpt>
      <trkpt lat="44.92909" lon="4.88285">
        <ele>108</ele>
        <time>2019-04-18T22:55:52Z</time>
      </trkpt>
      <trkpt lat="44.92878" lon="4.88466">
        <ele>108</ele>
        <time>2019-04-18T22:56:52Z</time>
      </trkpt>
      <trkpt lat="44.92858" lon="4.88496">
        <ele>108</ele>
        <time>2019-04-18T22:57:52Z</time>
      </trkpt>
    </trkseg>
  </trk>
</gpx>